<?xml version="1.0" encoding="UTF-8" standalone="no" ?>
<gpx xmlns="http://www.topografix.com/GPX/1/1" xmlns:xsi="http://www.w3.org/2001/XMLSchema-instance" xsi:schemaLocation="http://www.topografix.com/GPX/1/1 http://www.topografix.com/GPX/1/1/gpx.xsd" version="1.1" creator="VisuGPX - https://www.visugpx.com">
  <metadata>
    <name>RSPG randonnée des 10ans Manse</name>
    <desc><![CDATA[AU depart de Manse église, prendre le chemin qui mène vers le hameau de Serre Richard puis revenir vers le point de départ par la voie ferrée abandonnée du Champsaur et la voie romaine.]]></desc>
  </metadata>
  <trk>
    <name><![CDATA[Randonnée des 10 ans RSPG Manse: 08 OCT 2015 08:36]]></name>
    <trkseg>
      <trkpt lat="44.63361" lon="6.13448">
        <ele>1104.21</ele>
        <time>2015-10-08T06:36:57Z</time>
      </trkpt>
      <trkpt lat="44.63359" lon="6.13437">
        <ele>1108.06</ele>
        <time>2015-10-08T06:37:07Z</time>
      </trkpt>
      <trkpt lat="44.63359" lon="6.13435">
        <ele>1111.9</ele>
        <time>2015-10-08T06:37:09Z</time>
      </trkpt>
      <trkpt lat="44.63358" lon="6.13432">
        <ele>1115.75</ele>
        <time>2015-10-08T06:37:11Z</time>
      </trkpt>
      <trkpt lat="44.63358" lon="6.1343">
        <ele>1119.59</ele>
        <time>2015-10-08T06:37:13Z</time>
      </trkpt>
      <trkpt lat="44.63357" lon="6.13428">
        <ele>1122.48</ele>
        <time>2015-10-08T06:37:15Z</time>
      </trkpt>
      <trkpt lat="44.63357" lon="6.13425">
        <ele>1125.84</ele>
        <time>2015-10-08T06:37:17Z</time>
      </trkpt>
      <trkpt lat="44.63357" lon="6.13423">
        <ele>1129.69</ele>
        <time>2015-10-08T06:37:19Z</time>
      </trkpt>
      <trkpt lat="44.63356" lon="6.13421">
        <ele>1129.21</ele>
        <time>2015-10-08T06:37:20Z</time>
      </trkpt>
      <trkpt lat="44.63356" lon="6.13417">
        <ele>1133.53</ele>
        <time>2015-10-08T06:37:23Z</time>
      </trkpt>
      <trkpt lat="44.63355" lon="6.13413">
        <ele>1136.9</ele>
        <time>2015-10-08T06:37:26Z</time>
      </trkpt>
      <trkpt lat="44.63354" lon="6.13407">
        <ele>1142.18</ele>
        <time>2015-10-08T06:37:30Z</time>
      </trkpt>
      <trkpt lat="44.63354" lon="6.13405">
        <ele>1141.7</ele>
        <time>2015-10-08T06:37:31Z</time>
      </trkpt>
      <trkpt lat="44.63353" lon="6.134">
        <ele>1145.55</ele>
        <time>2015-10-08T06:37:35Z</time>
      </trkpt>
      <trkpt lat="44.63351" lon="6.13394">
        <ele>1148.43</ele>
        <time>2015-10-08T06:37:39Z</time>
      </trkpt>
      <trkpt lat="44.6335" lon="6.13388">
        <ele>1151.8</ele>
        <time>2015-10-08T06:37:43Z</time>
      </trkpt>
      <trkpt lat="44.63349" lon="6.13381">
        <ele>1155.16</ele>
        <time>2015-10-08T06:37:48Z</time>
      </trkpt>
      <trkpt lat="44.63349" lon="6.13376">
        <ele>1158.05</ele>
        <time>2015-10-08T06:37:52Z</time>
      </trkpt>
      <trkpt lat="44.63346" lon="6.13367">
        <ele>1160.93</ele>
        <time>2015-10-08T06:37:59Z</time>
      </trkpt>
      <trkpt lat="44.63346" lon="6.13359">
        <ele>1164.29</ele>
        <time>2015-10-08T06:38:07Z</time>
      </trkpt>
      <trkpt lat="44.63345" lon="6.13354">
        <ele>1166.22</ele>
        <time>2015-10-08T06:38:13Z</time>
      </trkpt>
      <trkpt lat="44.63349" lon="6.13336">
        <ele>1168.62</ele>
        <time>2015-10-08T06:38:25Z</time>
      </trkpt>
      <trkpt lat="44.63351" lon="6.13314">
        <ele>1168.62</ele>
        <time>2015-10-08T06:38:40Z</time>
      </trkpt>
      <trkpt lat="44.63356" lon="6.1329">
        <ele>1168.62</ele>
        <time>2015-10-08T06:38:57Z</time>
      </trkpt>
      <trkpt lat="44.63359" lon="6.13273">
        <ele>1167.66</ele>
        <time>2015-10-08T06:39:11Z</time>
      </trkpt>
      <trkpt lat="44.63367" lon="6.13256">
        <ele>1166.7</ele>
        <time>2015-10-08T06:39:24Z</time>
      </trkpt>
      <trkpt lat="44.63377" lon="6.13243">
        <ele>1166.22</ele>
        <time>2015-10-08T06:39:34Z</time>
      </trkpt>
      <trkpt lat="44.6338" lon="6.13237">
        <ele>1165.74</ele>
        <time>2015-10-08T06:39:38Z</time>
      </trkpt>
      <trkpt lat="44.63384" lon="6.13229">
        <ele>1165.74</ele>
        <time>2015-10-08T06:39:45Z</time>
      </trkpt>
      <trkpt lat="44.63393" lon="6.1321">
        <ele>1164.77</ele>
        <time>2015-10-08T06:40:00Z</time>
      </trkpt>
      <trkpt lat="44.63403" lon="6.1319">
        <ele>1164.29</ele>
        <time>2015-10-08T06:40:15Z</time>
      </trkpt>
      <trkpt lat="44.63411" lon="6.13165">
        <ele>1164.29</ele>
        <time>2015-10-08T06:40:32Z</time>
      </trkpt>
      <trkpt lat="44.63418" lon="6.13148">
        <ele>1164.29</ele>
        <time>2015-10-08T06:40:44Z</time>
      </trkpt>
      <trkpt lat="44.63423" lon="6.13136">
        <ele>1164.29</ele>
        <time>2015-10-08T06:40:52Z</time>
      </trkpt>
      <trkpt lat="44.63426" lon="6.1313">
        <ele>1164.29</ele>
        <time>2015-10-08T06:40:57Z</time>
      </trkpt>
      <trkpt lat="44.63435" lon="6.13108">
        <ele>1163.81</ele>
        <time>2015-10-08T06:41:14Z</time>
      </trkpt>
      <trkpt lat="44.63448" lon="6.13087">
        <ele>1162.85</ele>
        <time>2015-10-08T06:41:29Z</time>
      </trkpt>
      <trkpt lat="44.63459" lon="6.13068">
        <ele>1161.89</ele>
        <time>2015-10-08T06:41:44Z</time>
      </trkpt>
      <trkpt lat="44.63461" lon="6.13062">
        <ele>1161.89</ele>
        <time>2015-10-08T06:41:48Z</time>
      </trkpt>
      <trkpt lat="44.63469" lon="6.13046">
        <ele>1160.93</ele>
        <time>2015-10-08T06:42:01Z</time>
      </trkpt>
      <trkpt lat="44.63481" lon="6.13028">
        <ele>1159.49</ele>
        <time>2015-10-08T06:42:18Z</time>
      </trkpt>
      <trkpt lat="44.63483" lon="6.13023">
        <ele>1159.49</ele>
        <time>2015-10-08T06:42:21Z</time>
      </trkpt>
      <trkpt lat="44.63485" lon="6.13021">
        <ele>1159.49</ele>
        <time>2015-10-08T06:42:23Z</time>
      </trkpt>
      <trkpt lat="44.63498" lon="6.13001">
        <ele>1158.53</ele>
        <time>2015-10-08T06:42:40Z</time>
      </trkpt>
      <trkpt lat="44.635" lon="6.12998">
        <ele>1158.53</ele>
        <time>2015-10-08T06:42:42Z</time>
      </trkpt>
      <trkpt lat="44.63512" lon="6.12979">
        <ele>1157.08</ele>
        <time>2015-10-08T06:42:57Z</time>
      </trkpt>
      <trkpt lat="44.6353" lon="6.12953">
        <ele>1156.12</ele>
        <time>2015-10-08T06:43:18Z</time>
      </trkpt>
      <trkpt lat="44.63543" lon="6.12929">
        <ele>1155.16</ele>
        <time>2015-10-08T06:43:36Z</time>
      </trkpt>
      <trkpt lat="44.63552" lon="6.12901">
        <ele>1154.2</ele>
        <time>2015-10-08T06:43:55Z</time>
      </trkpt>
      <trkpt lat="44.63562" lon="6.12872">
        <ele>1152.76</ele>
        <time>2015-10-08T06:44:14Z</time>
      </trkpt>
      <trkpt lat="44.6357" lon="6.12845">
        <ele>1151.8</ele>
        <time>2015-10-08T06:44:32Z</time>
      </trkpt>
      <trkpt lat="44.63579" lon="6.12819">
        <ele>1149.39</ele>
        <time>2015-10-08T06:44:51Z</time>
      </trkpt>
      <trkpt lat="44.63583" lon="6.12809">
        <ele>1148.43</ele>
        <time>2015-10-08T06:45:08Z</time>
      </trkpt>
      <trkpt lat="44.63584" lon="6.12812">
        <ele>1148.43</ele>
        <time>2015-10-08T06:45:43Z</time>
      </trkpt>
      <trkpt lat="44.63583" lon="6.12808">
        <ele>1148.43</ele>
        <time>2015-10-08T06:46:15Z</time>
      </trkpt>
      <trkpt lat="44.63582" lon="6.12806">
        <ele>1148.43</ele>
        <time>2015-10-08T06:46:44Z</time>
      </trkpt>
      <trkpt lat="44.63585" lon="6.12803">
        <ele>1147.95</ele>
        <time>2015-10-08T06:46:57Z</time>
      </trkpt>
      <trkpt lat="44.63587" lon="6.12799">
        <ele>1147.47</ele>
        <time>2015-10-08T06:47:18Z</time>
      </trkpt>
      <trkpt lat="44.63594" lon="6.12791">
        <ele>1146.51</ele>
        <time>2015-10-08T06:47:30Z</time>
      </trkpt>
      <trkpt lat="44.63608" lon="6.12776">
        <ele>1144.59</ele>
        <time>2015-10-08T06:47:48Z</time>
      </trkpt>
      <trkpt lat="44.63621" lon="6.12769">
        <ele>1144.11</ele>
        <time>2015-10-08T06:48:06Z</time>
      </trkpt>
      <trkpt lat="44.63621" lon="6.12771">
        <ele>1144.11</ele>
        <time>2015-10-08T06:48:30Z</time>
      </trkpt>
      <trkpt lat="44.63623" lon="6.12771">
        <ele>1144.59</ele>
        <time>2015-10-08T06:48:46Z</time>
      </trkpt>
      <trkpt lat="44.63623" lon="6.12769">
        <ele>1144.11</ele>
        <time>2015-10-08T06:49:13Z</time>
      </trkpt>
      <trkpt lat="44.63623" lon="6.1277">
        <ele>1144.11</ele>
        <time>2015-10-08T06:49:37Z</time>
      </trkpt>
      <trkpt lat="44.63626" lon="6.1277">
        <ele>1144.11</ele>
        <time>2015-10-08T06:49:53Z</time>
      </trkpt>
      <trkpt lat="44.63634" lon="6.12776">
        <ele>1142.18</ele>
        <time>2015-10-08T06:50:06Z</time>
      </trkpt>
      <trkpt lat="44.63643" lon="6.12776">
        <ele>1139.78</ele>
        <time>2015-10-08T06:50:20Z</time>
      </trkpt>
      <trkpt lat="44.63654" lon="6.12774">
        <ele>1136.9</ele>
        <time>2015-10-08T06:50:34Z</time>
      </trkpt>
      <trkpt lat="44.63666" lon="6.12763">
        <ele>1135.45</ele>
        <time>2015-10-08T06:50:47Z</time>
      </trkpt>
      <trkpt lat="44.63669" lon="6.1276">
        <ele>1134.97</ele>
        <time>2015-10-08T06:50:51Z</time>
      </trkpt>
      <trkpt lat="44.63685" lon="6.12754">
        <ele>1133.53</ele>
        <time>2015-10-08T06:51:06Z</time>
      </trkpt>
      <trkpt lat="44.63689" lon="6.12754">
        <ele>1132.57</ele>
        <time>2015-10-08T06:51:10Z</time>
      </trkpt>
      <trkpt lat="44.63702" lon="6.12737">
        <ele>1131.13</ele>
        <time>2015-10-08T06:51:27Z</time>
      </trkpt>
      <trkpt lat="44.6371" lon="6.12728">
        <ele>1130.17</ele>
        <time>2015-10-08T06:51:40Z</time>
      </trkpt>
      <trkpt lat="44.63718" lon="6.12713">
        <ele>1128.73</ele>
        <time>2015-10-08T06:51:53Z</time>
      </trkpt>
      <trkpt lat="44.63733" lon="6.12701">
        <ele>1127.76</ele>
        <time>2015-10-08T06:52:08Z</time>
      </trkpt>
      <trkpt lat="44.63742" lon="6.12691">
        <ele>1125.84</ele>
        <time>2015-10-08T06:52:23Z</time>
      </trkpt>
      <trkpt lat="44.63749" lon="6.12686">
        <ele>1124.88</ele>
        <time>2015-10-08T06:52:35Z</time>
      </trkpt>
      <trkpt lat="44.63762" lon="6.12682">
        <ele>1123.44</ele>
        <time>2015-10-08T06:52:49Z</time>
      </trkpt>
      <trkpt lat="44.63778" lon="6.12674">
        <ele>1122.48</ele>
        <time>2015-10-08T06:53:04Z</time>
      </trkpt>
      <trkpt lat="44.63794" lon="6.12656">
        <ele>1120.55</ele>
        <time>2015-10-08T06:53:21Z</time>
      </trkpt>
      <trkpt lat="44.63804" lon="6.12643">
        <ele>1119.11</ele>
        <time>2015-10-08T06:53:35Z</time>
      </trkpt>
      <trkpt lat="44.63811" lon="6.12636">
        <ele>1118.15</ele>
        <time>2015-10-08T06:53:49Z</time>
      </trkpt>
      <trkpt lat="44.63813" lon="6.12627">
        <ele>1118.15</ele>
        <time>2015-10-08T06:54:04Z</time>
      </trkpt>
      <trkpt lat="44.63813" lon="6.12619">
        <ele>1118.63</ele>
        <time>2015-10-08T06:54:26Z</time>
      </trkpt>
      <trkpt lat="44.63814" lon="6.1261">
        <ele>1120.55</ele>
        <time>2015-10-08T06:54:41Z</time>
      </trkpt>
      <trkpt lat="44.6382" lon="6.12597">
        <ele>1122</ele>
        <time>2015-10-08T06:54:57Z</time>
      </trkpt>
      <trkpt lat="44.63821" lon="6.12593">
        <ele>1122</ele>
        <time>2015-10-08T06:55:01Z</time>
      </trkpt>
      <trkpt lat="44.63823" lon="6.12588">
        <ele>1121.52</ele>
        <time>2015-10-08T06:55:05Z</time>
      </trkpt>
      <trkpt lat="44.63827" lon="6.12569">
        <ele>1122</ele>
        <time>2015-10-08T06:55:20Z</time>
      </trkpt>
      <trkpt lat="44.63829" lon="6.12552">
        <ele>1122</ele>
        <time>2015-10-08T06:55:33Z</time>
      </trkpt>
      <trkpt lat="44.63829" lon="6.12534">
        <ele>1122</ele>
        <time>2015-10-08T06:55:46Z</time>
      </trkpt>
      <trkpt lat="44.63834" lon="6.12516">
        <ele>1122</ele>
        <time>2015-10-08T06:56:00Z</time>
      </trkpt>
      <trkpt lat="44.63839" lon="6.12506">
        <ele>1122</ele>
        <time>2015-10-08T06:56:13Z</time>
      </trkpt>
      <trkpt lat="44.63847" lon="6.12495">
        <ele>1122.48</ele>
        <time>2015-10-08T06:56:28Z</time>
      </trkpt>
      <trkpt lat="44.63862" lon="6.12478">
        <ele>1122.48</ele>
        <time>2015-10-08T06:56:42Z</time>
      </trkpt>
      <trkpt lat="44.63871" lon="6.12468">
        <ele>1122.48</ele>
        <time>2015-10-08T06:56:55Z</time>
      </trkpt>
      <trkpt lat="44.63883" lon="6.12456">
        <ele>1122.48</ele>
        <time>2015-10-08T06:57:09Z</time>
      </trkpt>
      <trkpt lat="44.63904" lon="6.12435">
        <ele>1122.48</ele>
        <time>2015-10-08T06:57:25Z</time>
      </trkpt>
      <trkpt lat="44.63922" lon="6.12418">
        <ele>1122.48</ele>
        <time>2015-10-08T06:57:45Z</time>
      </trkpt>
      <trkpt lat="44.63929" lon="6.1241">
        <ele>1122.48</ele>
        <time>2015-10-08T06:57:54Z</time>
      </trkpt>
      <trkpt lat="44.63944" lon="6.124">
        <ele>1122.48</ele>
        <time>2015-10-08T06:58:08Z</time>
      </trkpt>
      <trkpt lat="44.63961" lon="6.12388">
        <ele>1122.96</ele>
        <time>2015-10-08T06:58:27Z</time>
      </trkpt>
      <trkpt lat="44.63979" lon="6.12376">
        <ele>1122.48</ele>
        <time>2015-10-08T06:58:43Z</time>
      </trkpt>
      <trkpt lat="44.63994" lon="6.12369">
        <ele>1122.48</ele>
        <time>2015-10-08T06:58:57Z</time>
      </trkpt>
      <trkpt lat="44.64005" lon="6.12364">
        <ele>1122</ele>
        <time>2015-10-08T06:59:07Z</time>
      </trkpt>
      <trkpt lat="44.6402" lon="6.12357">
        <ele>1122.48</ele>
        <time>2015-10-08T06:59:23Z</time>
      </trkpt>
      <trkpt lat="44.64024" lon="6.12356">
        <ele>1122</ele>
        <time>2015-10-08T06:59:38Z</time>
      </trkpt>
      <trkpt lat="44.64027" lon="6.12351">
        <ele>1122.48</ele>
        <time>2015-10-08T06:59:43Z</time>
      </trkpt>
      <trkpt lat="44.6403" lon="6.12347">
        <ele>1122</ele>
        <time>2015-10-08T06:59:47Z</time>
      </trkpt>
      <trkpt lat="44.64036" lon="6.12326">
        <ele>1122</ele>
        <time>2015-10-08T07:00:03Z</time>
      </trkpt>
      <trkpt lat="44.64033" lon="6.12302">
        <ele>1122</ele>
        <time>2015-10-08T07:00:20Z</time>
      </trkpt>
      <trkpt lat="44.64029" lon="6.12284">
        <ele>1122</ele>
        <time>2015-10-08T07:00:37Z</time>
      </trkpt>
      <trkpt lat="44.64026" lon="6.12267">
        <ele>1121.52</ele>
        <time>2015-10-08T07:00:51Z</time>
      </trkpt>
      <trkpt lat="44.64021" lon="6.12259">
        <ele>1122</ele>
        <time>2015-10-08T07:00:59Z</time>
      </trkpt>
      <trkpt lat="44.64016" lon="6.12248">
        <ele>1122.48</ele>
        <time>2015-10-08T07:01:14Z</time>
      </trkpt>
      <trkpt lat="44.6402" lon="6.12234">
        <ele>1121.52</ele>
        <time>2015-10-08T07:01:30Z</time>
      </trkpt>
      <trkpt lat="44.64025" lon="6.12221">
        <ele>1121.03</ele>
        <time>2015-10-08T07:01:47Z</time>
      </trkpt>
      <trkpt lat="44.64028" lon="6.12213">
        <ele>1120.55</ele>
        <time>2015-10-08T07:02:03Z</time>
      </trkpt>
      <trkpt lat="44.64031" lon="6.12206">
        <ele>1120.55</ele>
        <time>2015-10-08T07:02:10Z</time>
      </trkpt>
      <trkpt lat="44.64032" lon="6.122">
        <ele>1120.55</ele>
        <time>2015-10-08T07:02:15Z</time>
      </trkpt>
      <trkpt lat="44.64039" lon="6.12179">
        <ele>1120.07</ele>
        <time>2015-10-08T07:02:32Z</time>
      </trkpt>
      <trkpt lat="44.64046" lon="6.12155">
        <ele>1119.59</ele>
        <time>2015-10-08T07:02:49Z</time>
      </trkpt>
      <trkpt lat="44.64051" lon="6.12125">
        <ele>1118.63</ele>
        <time>2015-10-08T07:03:09Z</time>
      </trkpt>
      <trkpt lat="44.6405" lon="6.12122">
        <ele>1118.63</ele>
        <time>2015-10-08T07:03:12Z</time>
      </trkpt>
      <trkpt lat="44.64052" lon="6.12111">
        <ele>1118.15</ele>
        <time>2015-10-08T07:03:20Z</time>
      </trkpt>
      <trkpt lat="44.64052" lon="6.12089">
        <ele>1117.67</ele>
        <time>2015-10-08T07:03:37Z</time>
      </trkpt>
      <trkpt lat="44.64036" lon="6.12079">
        <ele>1119.59</ele>
        <time>2015-10-08T07:03:55Z</time>
      </trkpt>
      <trkpt lat="44.64033" lon="6.12073">
        <ele>1120.55</ele>
        <time>2015-10-08T07:04:08Z</time>
      </trkpt>
      <trkpt lat="44.64033" lon="6.12066">
        <ele>1121.03</ele>
        <time>2015-10-08T07:04:20Z</time>
      </trkpt>
      <trkpt lat="44.64033" lon="6.12066">
        <ele>1121.52</ele>
        <time>2015-10-08T07:04:36Z</time>
      </trkpt>
      <trkpt lat="44.64031" lon="6.12065">
        <ele>1121.03</ele>
        <time>2015-10-08T07:05:02Z</time>
      </trkpt>
      <trkpt lat="44.64032" lon="6.12065">
        <ele>1121.03</ele>
        <time>2015-10-08T07:05:37Z</time>
      </trkpt>
      <trkpt lat="44.64034" lon="6.12068">
        <ele>1121.03</ele>
        <time>2015-10-08T07:06:17Z</time>
      </trkpt>
      <trkpt lat="44.64032" lon="6.12067">
        <ele>1121.03</ele>
        <time>2015-10-08T07:06:49Z</time>
      </trkpt>
      <trkpt lat="44.64032" lon="6.12065">
        <ele>1121.03</ele>
        <time>2015-10-08T07:07:20Z</time>
      </trkpt>
      <trkpt lat="44.64033" lon="6.12061">
        <ele>1121.52</ele>
        <time>2015-10-08T07:07:35Z</time>
      </trkpt>
      <trkpt lat="44.64035" lon="6.12057">
        <ele>1121.52</ele>
        <time>2015-10-08T07:07:50Z</time>
      </trkpt>
      <trkpt lat="44.6404" lon="6.12052">
        <ele>1121.52</ele>
        <time>2015-10-08T07:08:03Z</time>
      </trkpt>
      <trkpt lat="44.64039" lon="6.12053">
        <ele>1121.52</ele>
        <time>2015-10-08T07:08:22Z</time>
      </trkpt>
      <trkpt lat="44.64039" lon="6.12052">
        <ele>1121.52</ele>
        <time>2015-10-08T07:08:50Z</time>
      </trkpt>
      <trkpt lat="44.64035" lon="6.12059">
        <ele>1121.52</ele>
        <time>2015-10-08T07:09:04Z</time>
      </trkpt>
      <trkpt lat="44.64031" lon="6.12062">
        <ele>1121.52</ele>
        <time>2015-10-08T07:09:21Z</time>
      </trkpt>
      <trkpt lat="44.64032" lon="6.12063">
        <ele>1121.03</ele>
        <time>2015-10-08T07:09:50Z</time>
      </trkpt>
      <trkpt lat="44.64031" lon="6.12066">
        <ele>1121.03</ele>
        <time>2015-10-08T07:10:14Z</time>
      </trkpt>
      <trkpt lat="44.64033" lon="6.12077">
        <ele>1119.59</ele>
        <time>2015-10-08T07:10:29Z</time>
      </trkpt>
      <trkpt lat="44.64046" lon="6.12083">
        <ele>1117.67</ele>
        <time>2015-10-08T07:10:45Z</time>
      </trkpt>
      <trkpt lat="44.64061" lon="6.12073">
        <ele>1116.71</ele>
        <time>2015-10-08T07:11:04Z</time>
      </trkpt>
      <trkpt lat="44.64071" lon="6.12054">
        <ele>1116.23</ele>
        <time>2015-10-08T07:11:22Z</time>
      </trkpt>
      <trkpt lat="44.6408" lon="6.12034">
        <ele>1115.75</ele>
        <time>2015-10-08T07:11:39Z</time>
      </trkpt>
      <trkpt lat="44.64082" lon="6.12029">
        <ele>1115.75</ele>
        <time>2015-10-08T07:11:43Z</time>
      </trkpt>
      <trkpt lat="44.64088" lon="6.12011">
        <ele>1115.27</ele>
        <time>2015-10-08T07:11:58Z</time>
      </trkpt>
      <trkpt lat="44.6409" lon="6.11988">
        <ele>1115.27</ele>
        <time>2015-10-08T07:12:15Z</time>
      </trkpt>
      <trkpt lat="44.64092" lon="6.11964">
        <ele>1115.75</ele>
        <time>2015-10-08T07:12:33Z</time>
      </trkpt>
      <trkpt lat="44.64093" lon="6.11957">
        <ele>1115.75</ele>
        <time>2015-10-08T07:12:50Z</time>
      </trkpt>
      <trkpt lat="44.64099" lon="6.11938">
        <ele>1115.75</ele>
        <time>2015-10-08T07:13:06Z</time>
      </trkpt>
      <trkpt lat="44.64108" lon="6.11915">
        <ele>1115.75</ele>
        <time>2015-10-08T07:13:25Z</time>
      </trkpt>
      <trkpt lat="44.64109" lon="6.11914">
        <ele>1115.75</ele>
        <time>2015-10-08T07:13:26Z</time>
      </trkpt>
      <trkpt lat="44.64121" lon="6.11891">
        <ele>1115.27</ele>
        <time>2015-10-08T07:13:48Z</time>
      </trkpt>
      <trkpt lat="44.64127" lon="6.11879">
        <ele>1115.27</ele>
        <time>2015-10-08T07:14:03Z</time>
      </trkpt>
      <trkpt lat="44.64139" lon="6.1186">
        <ele>1114.79</ele>
        <time>2015-10-08T07:14:22Z</time>
      </trkpt>
      <trkpt lat="44.64154" lon="6.11838">
        <ele>1113.82</ele>
        <time>2015-10-08T07:14:42Z</time>
      </trkpt>
      <trkpt lat="44.64168" lon="6.11818">
        <ele>1113.34</ele>
        <time>2015-10-08T07:15:00Z</time>
      </trkpt>
      <trkpt lat="44.6418" lon="6.11799">
        <ele>1112.86</ele>
        <time>2015-10-08T07:15:17Z</time>
      </trkpt>
      <trkpt lat="44.64191" lon="6.11788">
        <ele>1112.38</ele>
        <time>2015-10-08T07:15:33Z</time>
      </trkpt>
      <trkpt lat="44.64191" lon="6.11789">
        <ele>1112.38</ele>
        <time>2015-10-08T07:15:53Z</time>
      </trkpt>
      <trkpt lat="44.64193" lon="6.11788">
        <ele>1112.38</ele>
        <time>2015-10-08T07:16:12Z</time>
      </trkpt>
      <trkpt lat="44.64197" lon="6.11787">
        <ele>1112.38</ele>
        <time>2015-10-08T07:16:25Z</time>
      </trkpt>
      <trkpt lat="44.64196" lon="6.11788">
        <ele>1112.38</ele>
        <time>2015-10-08T07:16:47Z</time>
      </trkpt>
      <trkpt lat="44.64196" lon="6.11786">
        <ele>1112.38</ele>
        <time>2015-10-08T07:17:10Z</time>
      </trkpt>
      <trkpt lat="44.64197" lon="6.11788">
        <ele>1112.38</ele>
        <time>2015-10-08T07:17:45Z</time>
      </trkpt>
      <trkpt lat="44.64197" lon="6.11788">
        <ele>1112.38</ele>
        <time>2015-10-08T07:18:09Z</time>
      </trkpt>
      <trkpt lat="44.64195" lon="6.11788">
        <ele>1112.38</ele>
        <time>2015-10-08T07:18:32Z</time>
      </trkpt>
      <trkpt lat="44.64198" lon="6.11795">
        <ele>1111.9</ele>
        <time>2015-10-08T07:18:48Z</time>
      </trkpt>
      <trkpt lat="44.64203" lon="6.1181">
        <ele>1110.94</ele>
        <time>2015-10-08T07:19:03Z</time>
      </trkpt>
      <trkpt lat="44.64204" lon="6.11815">
        <ele>1110.94</ele>
        <time>2015-10-08T07:19:07Z</time>
      </trkpt>
      <trkpt lat="44.64209" lon="6.11836">
        <ele>1109.5</ele>
        <time>2015-10-08T07:19:25Z</time>
      </trkpt>
      <trkpt lat="44.64213" lon="6.11861">
        <ele>1108.54</ele>
        <time>2015-10-08T07:19:43Z</time>
      </trkpt>
      <trkpt lat="44.64215" lon="6.11884">
        <ele>1108.06</ele>
        <time>2015-10-08T07:20:00Z</time>
      </trkpt>
      <trkpt lat="44.64216" lon="6.11912">
        <ele>1107.1</ele>
        <time>2015-10-08T07:20:19Z</time>
      </trkpt>
      <trkpt lat="44.64215" lon="6.11939">
        <ele>1106.61</ele>
        <time>2015-10-08T07:20:37Z</time>
      </trkpt>
      <trkpt lat="44.64211" lon="6.11969">
        <ele>1105.17</ele>
        <time>2015-10-08T07:20:57Z</time>
      </trkpt>
      <trkpt lat="44.64209" lon="6.11996">
        <ele>1104.21</ele>
        <time>2015-10-08T07:21:15Z</time>
      </trkpt>
      <trkpt lat="44.64206" lon="6.12023">
        <ele>1103.73</ele>
        <time>2015-10-08T07:21:33Z</time>
      </trkpt>
      <trkpt lat="44.64203" lon="6.12054">
        <ele>1103.25</ele>
        <time>2015-10-08T07:21:55Z</time>
      </trkpt>
      <trkpt lat="44.642" lon="6.12063">
        <ele>1103.25</ele>
        <time>2015-10-08T07:22:11Z</time>
      </trkpt>
      <trkpt lat="44.642" lon="6.1206">
        <ele>1103.25</ele>
        <time>2015-10-08T07:22:41Z</time>
      </trkpt>
      <trkpt lat="44.64201" lon="6.12069">
        <ele>1103.25</ele>
        <time>2015-10-08T07:23:01Z</time>
      </trkpt>
      <trkpt lat="44.642" lon="6.12092">
        <ele>1102.29</ele>
        <time>2015-10-08T07:23:18Z</time>
      </trkpt>
      <trkpt lat="44.64195" lon="6.12122">
        <ele>1101.81</ele>
        <time>2015-10-08T07:23:37Z</time>
      </trkpt>
      <trkpt lat="44.64194" lon="6.12126">
        <ele>1101.81</ele>
        <time>2015-10-08T07:23:40Z</time>
      </trkpt>
      <trkpt lat="44.64191" lon="6.1215">
        <ele>1101.33</ele>
        <time>2015-10-08T07:23:57Z</time>
      </trkpt>
      <trkpt lat="44.64191" lon="6.12171">
        <ele>1100.37</ele>
        <time>2015-10-08T07:24:12Z</time>
      </trkpt>
      <trkpt lat="44.6419" lon="6.12189">
        <ele>1099.89</ele>
        <time>2015-10-08T07:24:24Z</time>
      </trkpt>
      <trkpt lat="44.64189" lon="6.12218">
        <ele>1098.92</ele>
        <time>2015-10-08T07:24:43Z</time>
      </trkpt>
      <trkpt lat="44.64188" lon="6.12241">
        <ele>1097.96</ele>
        <time>2015-10-08T07:24:58Z</time>
      </trkpt>
      <trkpt lat="44.64183" lon="6.12264">
        <ele>1097.48</ele>
        <time>2015-10-08T07:25:13Z</time>
      </trkpt>
      <trkpt lat="44.64182" lon="6.12267">
        <ele>1097</ele>
        <time>2015-10-08T07:25:15Z</time>
      </trkpt>
      <trkpt lat="44.64178" lon="6.12297">
        <ele>1096.04</ele>
        <time>2015-10-08T07:25:35Z</time>
      </trkpt>
      <trkpt lat="44.64176" lon="6.12327">
        <ele>1095.56</ele>
        <time>2015-10-08T07:25:53Z</time>
      </trkpt>
      <trkpt lat="44.64174" lon="6.12354">
        <ele>1094.6</ele>
        <time>2015-10-08T07:26:10Z</time>
      </trkpt>
      <trkpt lat="44.6417" lon="6.12381">
        <ele>1094.12</ele>
        <time>2015-10-08T07:26:28Z</time>
      </trkpt>
      <trkpt lat="44.64166" lon="6.12406">
        <ele>1093.64</ele>
        <time>2015-10-08T07:26:44Z</time>
      </trkpt>
      <trkpt lat="44.64165" lon="6.12431">
        <ele>1092.68</ele>
        <time>2015-10-08T07:27:00Z</time>
      </trkpt>
      <trkpt lat="44.64163" lon="6.12454">
        <ele>1092.68</ele>
        <time>2015-10-08T07:27:15Z</time>
      </trkpt>
      <trkpt lat="44.6416" lon="6.1248">
        <ele>1092.2</ele>
        <time>2015-10-08T07:27:31Z</time>
      </trkpt>
      <trkpt lat="44.64158" lon="6.12506">
        <ele>1092.2</ele>
        <time>2015-10-08T07:27:48Z</time>
      </trkpt>
      <trkpt lat="44.64155" lon="6.12535">
        <ele>1092.2</ele>
        <time>2015-10-08T07:28:06Z</time>
      </trkpt>
      <trkpt lat="44.64152" lon="6.12564">
        <ele>1092.2</ele>
        <time>2015-10-08T07:28:26Z</time>
      </trkpt>
      <trkpt lat="44.64152" lon="6.12572">
        <ele>1092.2</ele>
        <time>2015-10-08T07:28:41Z</time>
      </trkpt>
      <trkpt lat="44.64152" lon="6.12576">
        <ele>1092.2</ele>
        <time>2015-10-08T07:28:53Z</time>
      </trkpt>
      <trkpt lat="44.64152" lon="6.12582">
        <ele>1091.71</ele>
        <time>2015-10-08T07:29:04Z</time>
      </trkpt>
      <trkpt lat="44.64151" lon="6.12586">
        <ele>1092.2</ele>
        <time>2015-10-08T07:29:07Z</time>
      </trkpt>
      <trkpt lat="44.64148" lon="6.1261">
        <ele>1092.2</ele>
        <time>2015-10-08T07:29:24Z</time>
      </trkpt>
      <trkpt lat="44.64147" lon="6.12632">
        <ele>1092.2</ele>
        <time>2015-10-08T07:29:40Z</time>
      </trkpt>
      <trkpt lat="44.64144" lon="6.12649">
        <ele>1091.71</ele>
        <time>2015-10-08T07:29:55Z</time>
      </trkpt>
      <trkpt lat="44.64142" lon="6.1267">
        <ele>1092.2</ele>
        <time>2015-10-08T07:30:11Z</time>
      </trkpt>
      <trkpt lat="44.64141" lon="6.12688">
        <ele>1091.71</ele>
        <time>2015-10-08T07:30:23Z</time>
      </trkpt>
      <trkpt lat="44.64138" lon="6.12716">
        <ele>1091.71</ele>
        <time>2015-10-08T07:30:42Z</time>
      </trkpt>
      <trkpt lat="44.64136" lon="6.12737">
        <ele>1091.23</ele>
        <time>2015-10-08T07:30:57Z</time>
      </trkpt>
      <trkpt lat="44.64135" lon="6.12742">
        <ele>1091.71</ele>
        <time>2015-10-08T07:31:01Z</time>
      </trkpt>
      <trkpt lat="44.64134" lon="6.12759">
        <ele>1091.71</ele>
        <time>2015-10-08T07:31:16Z</time>
      </trkpt>
      <trkpt lat="44.64132" lon="6.12779">
        <ele>1091.71</ele>
        <time>2015-10-08T07:31:33Z</time>
      </trkpt>
      <trkpt lat="44.64131" lon="6.12802">
        <ele>1091.23</ele>
        <time>2015-10-08T07:31:50Z</time>
      </trkpt>
      <trkpt lat="44.64128" lon="6.12823">
        <ele>1091.23</ele>
        <time>2015-10-08T07:32:05Z</time>
      </trkpt>
      <trkpt lat="44.64126" lon="6.12846">
        <ele>1091.23</ele>
        <time>2015-10-08T07:32:22Z</time>
      </trkpt>
      <trkpt lat="44.64123" lon="6.12867">
        <ele>1090.75</ele>
        <time>2015-10-08T07:32:39Z</time>
      </trkpt>
      <trkpt lat="44.64122" lon="6.12885">
        <ele>1090.75</ele>
        <time>2015-10-08T07:32:53Z</time>
      </trkpt>
      <trkpt lat="44.64122" lon="6.12891">
        <ele>1090.75</ele>
        <time>2015-10-08T07:33:08Z</time>
      </trkpt>
      <trkpt lat="44.64122" lon="6.12893">
        <ele>1090.75</ele>
        <time>2015-10-08T07:33:30Z</time>
      </trkpt>
      <trkpt lat="44.64118" lon="6.12911">
        <ele>1090.75</ele>
        <time>2015-10-08T07:33:45Z</time>
      </trkpt>
      <trkpt lat="44.64117" lon="6.12931">
        <ele>1090.27</ele>
        <time>2015-10-08T07:33:59Z</time>
      </trkpt>
      <trkpt lat="44.64116" lon="6.12936">
        <ele>1090.27</ele>
        <time>2015-10-08T07:34:02Z</time>
      </trkpt>
      <trkpt lat="44.64115" lon="6.12963">
        <ele>1090.27</ele>
        <time>2015-10-08T07:34:20Z</time>
      </trkpt>
      <trkpt lat="44.6411" lon="6.12982">
        <ele>1090.27</ele>
        <time>2015-10-08T07:34:35Z</time>
      </trkpt>
      <trkpt lat="44.64109" lon="6.13006">
        <ele>1089.79</ele>
        <time>2015-10-08T07:34:51Z</time>
      </trkpt>
      <trkpt lat="44.64106" lon="6.13028">
        <ele>1089.79</ele>
        <time>2015-10-08T07:35:06Z</time>
      </trkpt>
      <trkpt lat="44.64105" lon="6.13054">
        <ele>1089.31</ele>
        <time>2015-10-08T07:35:21Z</time>
      </trkpt>
      <trkpt lat="44.64103" lon="6.13075">
        <ele>1089.31</ele>
        <time>2015-10-08T07:35:35Z</time>
      </trkpt>
      <trkpt lat="44.64102" lon="6.13097">
        <ele>1088.83</ele>
        <time>2015-10-08T07:35:52Z</time>
      </trkpt>
      <trkpt lat="44.641" lon="6.131">
        <ele>1088.83</ele>
        <time>2015-10-08T07:36:05Z</time>
      </trkpt>
      <trkpt lat="44.64101" lon="6.13101">
        <ele>1088.83</ele>
        <time>2015-10-08T07:36:18Z</time>
      </trkpt>
      <trkpt lat="44.64099" lon="6.13104">
        <ele>1088.83</ele>
        <time>2015-10-08T07:36:48Z</time>
      </trkpt>
      <trkpt lat="44.64098" lon="6.13107">
        <ele>1088.83</ele>
        <time>2015-10-08T07:37:02Z</time>
      </trkpt>
      <trkpt lat="44.64097" lon="6.13113">
        <ele>1088.83</ele>
        <time>2015-10-08T07:37:16Z</time>
      </trkpt>
      <trkpt lat="44.64093" lon="6.13115">
        <ele>1088.35</ele>
        <time>2015-10-08T07:37:28Z</time>
      </trkpt>
      <trkpt lat="44.64091" lon="6.1312">
        <ele>1087.39</ele>
        <time>2015-10-08T07:37:43Z</time>
      </trkpt>
      <trkpt lat="44.64086" lon="6.13122">
        <ele>1084.5</ele>
        <time>2015-10-08T07:37:54Z</time>
      </trkpt>
      <trkpt lat="44.64084" lon="6.13125">
        <ele>1084.99</ele>
        <time>2015-10-08T07:38:19Z</time>
      </trkpt>
      <trkpt lat="44.64087" lon="6.13124">
        <ele>1084.5</ele>
        <time>2015-10-08T07:38:55Z</time>
      </trkpt>
      <trkpt lat="44.64088" lon="6.13121">
        <ele>1084.99</ele>
        <time>2015-10-08T07:39:15Z</time>
      </trkpt>
      <trkpt lat="44.64092" lon="6.13129">
        <ele>1083.06</ele>
        <time>2015-10-08T07:39:33Z</time>
      </trkpt>
      <trkpt lat="44.6411" lon="6.13143">
        <ele>1080.18</ele>
        <time>2015-10-08T07:39:51Z</time>
      </trkpt>
      <trkpt lat="44.64115" lon="6.13146">
        <ele>1079.7</ele>
        <time>2015-10-08T07:39:57Z</time>
      </trkpt>
      <trkpt lat="44.64119" lon="6.13147">
        <ele>1078.26</ele>
        <time>2015-10-08T07:40:13Z</time>
      </trkpt>
      <trkpt lat="44.64122" lon="6.1316">
        <ele>1077.78</ele>
        <time>2015-10-08T07:40:29Z</time>
      </trkpt>
      <trkpt lat="44.64121" lon="6.13175">
        <ele>1079.7</ele>
        <time>2015-10-08T07:40:41Z</time>
      </trkpt>
      <trkpt lat="44.6411" lon="6.13182">
        <ele>1082.1</ele>
        <time>2015-10-08T07:40:55Z</time>
      </trkpt>
      <trkpt lat="44.64102" lon="6.13178">
        <ele>1084.5</ele>
        <time>2015-10-08T07:41:09Z</time>
      </trkpt>
      <trkpt lat="44.64094" lon="6.13175">
        <ele>1086.91</ele>
        <time>2015-10-08T07:41:22Z</time>
      </trkpt>
      <trkpt lat="44.64084" lon="6.13168">
        <ele>1088.83</ele>
        <time>2015-10-08T07:41:37Z</time>
      </trkpt>
      <trkpt lat="44.6409" lon="6.13172">
        <ele>1089.31</ele>
        <time>2015-10-08T07:41:53Z</time>
      </trkpt>
      <trkpt lat="44.64092" lon="6.13176">
        <ele>1089.79</ele>
        <time>2015-10-08T07:41:57Z</time>
      </trkpt>
      <trkpt lat="44.64093" lon="6.13205">
        <ele>1089.31</ele>
        <time>2015-10-08T07:42:15Z</time>
      </trkpt>
      <trkpt lat="44.64092" lon="6.13225">
        <ele>1089.31</ele>
        <time>2015-10-08T07:42:29Z</time>
      </trkpt>
      <trkpt lat="44.64088" lon="6.13245">
        <ele>1089.31</ele>
        <time>2015-10-08T07:42:43Z</time>
      </trkpt>
      <trkpt lat="44.64084" lon="6.1327">
        <ele>1089.31</ele>
        <time>2015-10-08T07:42:59Z</time>
      </trkpt>
      <trkpt lat="44.64083" lon="6.13275">
        <ele>1089.31</ele>
        <time>2015-10-08T07:43:02Z</time>
      </trkpt>
      <trkpt lat="44.64083" lon="6.13283">
        <ele>1089.31</ele>
        <time>2015-10-08T07:43:07Z</time>
      </trkpt>
      <trkpt lat="44.64081" lon="6.13304">
        <ele>1088.83</ele>
        <time>2015-10-08T07:43:21Z</time>
      </trkpt>
      <trkpt lat="44.64081" lon="6.13318">
        <ele>1088.83</ele>
        <time>2015-10-08T07:43:30Z</time>
      </trkpt>
      <trkpt lat="44.64077" lon="6.1334">
        <ele>1088.35</ele>
        <time>2015-10-08T07:43:46Z</time>
      </trkpt>
      <trkpt lat="44.64077" lon="6.13363">
        <ele>1086.91</ele>
        <time>2015-10-08T07:44:02Z</time>
      </trkpt>
      <trkpt lat="44.64077" lon="6.13368">
        <ele>1086.91</ele>
        <time>2015-10-08T07:44:05Z</time>
      </trkpt>
      <trkpt lat="44.64078" lon="6.13371">
        <ele>1086.91</ele>
        <time>2015-10-08T07:44:07Z</time>
      </trkpt>
      <trkpt lat="44.64079" lon="6.13375">
        <ele>1086.91</ele>
        <time>2015-10-08T07:44:09Z</time>
      </trkpt>
      <trkpt lat="44.64075" lon="6.13402">
        <ele>1084.99</ele>
        <time>2015-10-08T07:44:27Z</time>
      </trkpt>
      <trkpt lat="44.64071" lon="6.1343">
        <ele>1084.02</ele>
        <time>2015-10-08T07:44:46Z</time>
      </trkpt>
      <trkpt lat="44.64066" lon="6.13456">
        <ele>1082.58</ele>
        <time>2015-10-08T07:45:03Z</time>
      </trkpt>
      <trkpt lat="44.64064" lon="6.13474">
        <ele>1082.1</ele>
        <time>2015-10-08T07:45:20Z</time>
      </trkpt>
      <trkpt lat="44.64067" lon="6.13475">
        <ele>1083.54</ele>
        <time>2015-10-08T07:45:36Z</time>
      </trkpt>
      <trkpt lat="44.64068" lon="6.13475">
        <ele>1083.54</ele>
        <time>2015-10-08T07:45:50Z</time>
      </trkpt>
      <trkpt lat="44.64067" lon="6.13475">
        <ele>1083.54</ele>
        <time>2015-10-08T07:46:11Z</time>
      </trkpt>
      <trkpt lat="44.64069" lon="6.13475">
        <ele>1083.54</ele>
        <time>2015-10-08T07:46:32Z</time>
      </trkpt>
      <trkpt lat="44.64066" lon="6.13474">
        <ele>1083.54</ele>
        <time>2015-10-08T07:46:49Z</time>
      </trkpt>
      <trkpt lat="44.64068" lon="6.13478">
        <ele>1083.54</ele>
        <time>2015-10-08T07:47:07Z</time>
      </trkpt>
      <trkpt lat="44.64066" lon="6.13475">
        <ele>1083.54</ele>
        <time>2015-10-08T07:47:23Z</time>
      </trkpt>
      <trkpt lat="44.64067" lon="6.13477">
        <ele>1083.54</ele>
        <time>2015-10-08T07:47:55Z</time>
      </trkpt>
      <trkpt lat="44.64065" lon="6.13475">
        <ele>1083.06</ele>
        <time>2015-10-08T07:48:25Z</time>
      </trkpt>
      <trkpt lat="44.64064" lon="6.13475">
        <ele>1082.58</ele>
        <time>2015-10-08T07:48:26Z</time>
      </trkpt>
      <trkpt lat="44.64061" lon="6.13482">
        <ele>1081.62</ele>
        <time>2015-10-08T07:48:40Z</time>
      </trkpt>
      <trkpt lat="44.64061" lon="6.13499">
        <ele>1081.14</ele>
        <time>2015-10-08T07:48:55Z</time>
      </trkpt>
      <trkpt lat="44.64062" lon="6.13521">
        <ele>1080.18</ele>
        <time>2015-10-08T07:49:12Z</time>
      </trkpt>
      <trkpt lat="44.64063" lon="6.13543">
        <ele>1079.22</ele>
        <time>2015-10-08T07:49:29Z</time>
      </trkpt>
      <trkpt lat="44.64067" lon="6.13564">
        <ele>1078.26</ele>
        <time>2015-10-08T07:49:47Z</time>
      </trkpt>
      <trkpt lat="44.64074" lon="6.13586">
        <ele>1076.81</ele>
        <time>2015-10-08T07:50:05Z</time>
      </trkpt>
      <trkpt lat="44.64081" lon="6.13599">
        <ele>1075.85</ele>
        <time>2015-10-08T07:50:18Z</time>
      </trkpt>
      <trkpt lat="44.64089" lon="6.13613">
        <ele>1075.37</ele>
        <time>2015-10-08T07:50:33Z</time>
      </trkpt>
      <trkpt lat="44.64093" lon="6.13617">
        <ele>1074.89</ele>
        <time>2015-10-08T07:50:47Z</time>
      </trkpt>
      <trkpt lat="44.64096" lon="6.13619">
        <ele>1074.89</ele>
        <time>2015-10-08T07:51:03Z</time>
      </trkpt>
      <trkpt lat="44.64097" lon="6.13621">
        <ele>1074.41</ele>
        <time>2015-10-08T07:51:15Z</time>
      </trkpt>
      <trkpt lat="44.641" lon="6.13624">
        <ele>1074.41</ele>
        <time>2015-10-08T07:51:27Z</time>
      </trkpt>
      <trkpt lat="44.64106" lon="6.13629">
        <ele>1073.93</ele>
        <time>2015-10-08T07:51:44Z</time>
      </trkpt>
      <trkpt lat="44.64107" lon="6.1363">
        <ele>1073.93</ele>
        <time>2015-10-08T07:51:45Z</time>
      </trkpt>
      <trkpt lat="44.64122" lon="6.13636">
        <ele>1072.49</ele>
        <time>2015-10-08T07:52:01Z</time>
      </trkpt>
      <trkpt lat="44.64127" lon="6.13639">
        <ele>1072.49</ele>
        <time>2015-10-08T07:52:13Z</time>
      </trkpt>
      <trkpt lat="44.64131" lon="6.13639">
        <ele>1072.49</ele>
        <time>2015-10-08T07:52:27Z</time>
      </trkpt>
      <trkpt lat="44.64146" lon="6.13641">
        <ele>1071.05</ele>
        <time>2015-10-08T07:52:46Z</time>
      </trkpt>
      <trkpt lat="44.64149" lon="6.13643">
        <ele>1070.57</ele>
        <time>2015-10-08T07:52:49Z</time>
      </trkpt>
      <trkpt lat="44.64157" lon="6.13643">
        <ele>1070.08</ele>
        <time>2015-10-08T07:52:58Z</time>
      </trkpt>
      <trkpt lat="44.64161" lon="6.13642">
        <ele>1070.08</ele>
        <time>2015-10-08T07:53:01Z</time>
      </trkpt>
      <trkpt lat="44.64181" lon="6.13637">
        <ele>1068.64</ele>
        <time>2015-10-08T07:53:18Z</time>
      </trkpt>
      <trkpt lat="44.64186" lon="6.13632">
        <ele>1068.16</ele>
        <time>2015-10-08T07:53:29Z</time>
      </trkpt>
      <trkpt lat="44.64201" lon="6.1362">
        <ele>1066.72</ele>
        <time>2015-10-08T07:53:45Z</time>
      </trkpt>
      <trkpt lat="44.64207" lon="6.13609">
        <ele>1066.24</ele>
        <time>2015-10-08T07:54:01Z</time>
      </trkpt>
      <trkpt lat="44.64213" lon="6.13606">
        <ele>1065.76</ele>
        <time>2015-10-08T07:54:17Z</time>
      </trkpt>
      <trkpt lat="44.6422" lon="6.13598">
        <ele>1065.28</ele>
        <time>2015-10-08T07:54:30Z</time>
      </trkpt>
      <trkpt lat="44.64224" lon="6.13588">
        <ele>1064.8</ele>
        <time>2015-10-08T07:54:44Z</time>
      </trkpt>
      <trkpt lat="44.64228" lon="6.13576">
        <ele>1064.32</ele>
        <time>2015-10-08T07:54:57Z</time>
      </trkpt>
      <trkpt lat="44.64231" lon="6.13567">
        <ele>1063.84</ele>
        <time>2015-10-08T07:55:04Z</time>
      </trkpt>
      <trkpt lat="44.64235" lon="6.13551">
        <ele>1063.84</ele>
        <time>2015-10-08T07:55:19Z</time>
      </trkpt>
      <trkpt lat="44.64238" lon="6.13543">
        <ele>1063.84</ele>
        <time>2015-10-08T07:55:32Z</time>
      </trkpt>
      <trkpt lat="44.64241" lon="6.13518">
        <ele>1063.36</ele>
        <time>2015-10-08T07:55:49Z</time>
      </trkpt>
      <trkpt lat="44.64244" lon="6.13505">
        <ele>1063.36</ele>
        <time>2015-10-08T07:56:05Z</time>
      </trkpt>
      <trkpt lat="44.64245" lon="6.13501">
        <ele>1063.36</ele>
        <time>2015-10-08T07:56:19Z</time>
      </trkpt>
      <trkpt lat="44.64246" lon="6.13494">
        <ele>1063.36</ele>
        <time>2015-10-08T07:56:32Z</time>
      </trkpt>
      <trkpt lat="44.64246" lon="6.13491">
        <ele>1063.36</ele>
        <time>2015-10-08T07:56:47Z</time>
      </trkpt>
      <trkpt lat="44.64248" lon="6.13482">
        <ele>1063.36</ele>
        <time>2015-10-08T07:56:58Z</time>
      </trkpt>
      <trkpt lat="44.6425" lon="6.1348">
        <ele>1062.87</ele>
        <time>2015-10-08T07:57:13Z</time>
      </trkpt>
      <trkpt lat="44.64249" lon="6.13479">
        <ele>1063.36</ele>
        <time>2015-10-08T07:57:28Z</time>
      </trkpt>
      <trkpt lat="44.64248" lon="6.13479">
        <ele>1061.91</ele>
        <time>2015-10-08T07:57:55Z</time>
      </trkpt>
      <trkpt lat="44.64247" lon="6.13478">
        <ele>1061.91</ele>
        <time>2015-10-08T07:58:05Z</time>
      </trkpt>
      <trkpt lat="44.64246" lon="6.1348">
        <ele>1063.36</ele>
        <time>2015-10-08T07:58:14Z</time>
      </trkpt>
      <trkpt lat="44.64247" lon="6.1348">
        <ele>1063.36</ele>
        <time>2015-10-08T07:58:42Z</time>
      </trkpt>
      <trkpt lat="44.64247" lon="6.13481">
        <ele>1063.36</ele>
        <time>2015-10-08T07:59:03Z</time>
      </trkpt>
      <trkpt lat="44.64246" lon="6.13483">
        <ele>1063.36</ele>
        <time>2015-10-08T07:59:33Z</time>
      </trkpt>
      <trkpt lat="44.64247" lon="6.13481">
        <ele>1063.36</ele>
        <time>2015-10-08T08:00:06Z</time>
      </trkpt>
      <trkpt lat="44.64248" lon="6.1348">
        <ele>1063.36</ele>
        <time>2015-10-08T08:00:23Z</time>
      </trkpt>
      <trkpt lat="44.64249" lon="6.13479">
        <ele>1063.36</ele>
        <time>2015-10-08T08:00:57Z</time>
      </trkpt>
      <trkpt lat="44.64248" lon="6.13477">
        <ele>1063.36</ele>
        <time>2015-10-08T08:01:35Z</time>
      </trkpt>
      <trkpt lat="44.64249" lon="6.13479">
        <ele>1063.36</ele>
        <time>2015-10-08T08:02:02Z</time>
      </trkpt>
      <trkpt lat="44.64252" lon="6.13482">
        <ele>1063.36</ele>
        <time>2015-10-08T08:02:24Z</time>
      </trkpt>
      <trkpt lat="44.64252" lon="6.13479">
        <ele>1063.36</ele>
        <time>2015-10-08T08:02:47Z</time>
      </trkpt>
      <trkpt lat="44.64253" lon="6.13477">
        <ele>1063.36</ele>
        <time>2015-10-08T08:03:10Z</time>
      </trkpt>
      <trkpt lat="44.64251" lon="6.13479">
        <ele>1063.36</ele>
        <time>2015-10-08T08:03:43Z</time>
      </trkpt>
      <trkpt lat="44.64252" lon="6.13479">
        <ele>1063.84</ele>
        <time>2015-10-08T08:03:57Z</time>
      </trkpt>
      <trkpt lat="44.64252" lon="6.1348">
        <ele>1063.36</ele>
        <time>2015-10-08T08:04:29Z</time>
      </trkpt>
      <trkpt lat="44.6425" lon="6.1348">
        <ele>1063.36</ele>
        <time>2015-10-08T08:04:50Z</time>
      </trkpt>
      <trkpt lat="44.64251" lon="6.13481">
        <ele>1063.36</ele>
        <time>2015-10-08T08:05:16Z</time>
      </trkpt>
      <trkpt lat="44.64246" lon="6.13481">
        <ele>1063.36</ele>
        <time>2015-10-08T08:05:31Z</time>
      </trkpt>
      <trkpt lat="44.64247" lon="6.13481">
        <ele>1063.36</ele>
        <time>2015-10-08T08:05:46Z</time>
      </trkpt>
      <trkpt lat="44.64248" lon="6.13482">
        <ele>1063.36</ele>
        <time>2015-10-08T08:06:07Z</time>
      </trkpt>
      <trkpt lat="44.64247" lon="6.13483">
        <ele>1063.36</ele>
        <time>2015-10-08T08:06:30Z</time>
      </trkpt>
      <trkpt lat="44.64247" lon="6.13482">
        <ele>1063.36</ele>
        <time>2015-10-08T08:07:04Z</time>
      </trkpt>
      <trkpt lat="44.64247" lon="6.13481">
        <ele>1063.36</ele>
        <time>2015-10-08T08:07:30Z</time>
      </trkpt>
      <trkpt lat="44.64247" lon="6.13482">
        <ele>1063.36</ele>
        <time>2015-10-08T08:07:59Z</time>
      </trkpt>
      <trkpt lat="44.64246" lon="6.13481">
        <ele>1063.36</ele>
        <time>2015-10-08T08:08:16Z</time>
      </trkpt>
      <trkpt lat="44.64247" lon="6.13482">
        <ele>1063.36</ele>
        <time>2015-10-08T08:08:41Z</time>
      </trkpt>
      <trkpt lat="44.64247" lon="6.13484">
        <ele>1063.36</ele>
        <time>2015-10-08T08:08:57Z</time>
      </trkpt>
      <trkpt lat="44.64246" lon="6.13484">
        <ele>1063.36</ele>
        <time>2015-10-08T08:09:19Z</time>
      </trkpt>
      <trkpt lat="44.6425" lon="6.13492">
        <ele>1063.36</ele>
        <time>2015-10-08T08:09:26Z</time>
      </trkpt>
      <trkpt lat="44.64251" lon="6.13499">
        <ele>1063.36</ele>
        <time>2015-10-08T08:09:32Z</time>
      </trkpt>
      <trkpt lat="44.64248" lon="6.13511">
        <ele>1062.39</ele>
        <time>2015-10-08T08:09:44Z</time>
      </trkpt>
      <trkpt lat="44.64246" lon="6.1353">
        <ele>1061.43</ele>
        <time>2015-10-08T08:10:00Z</time>
      </trkpt>
      <trkpt lat="44.64242" lon="6.13555">
        <ele>1060.95</ele>
        <time>2015-10-08T08:10:18Z</time>
      </trkpt>
      <trkpt lat="44.64238" lon="6.13576">
        <ele>1060.47</ele>
        <time>2015-10-08T08:10:34Z</time>
      </trkpt>
      <trkpt lat="44.64232" lon="6.13599">
        <ele>1059.51</ele>
        <time>2015-10-08T08:10:51Z</time>
      </trkpt>
      <trkpt lat="44.64226" lon="6.1362">
        <ele>1059.03</ele>
        <time>2015-10-08T08:11:06Z</time>
      </trkpt>
      <trkpt lat="44.64224" lon="6.13625">
        <ele>1059.03</ele>
        <time>2015-10-08T08:11:10Z</time>
      </trkpt>
      <trkpt lat="44.64222" lon="6.13649">
        <ele>1058.55</ele>
        <time>2015-10-08T08:11:27Z</time>
      </trkpt>
      <trkpt lat="44.64237" lon="6.13666">
        <ele>1058.55</ele>
        <time>2015-10-08T08:11:45Z</time>
      </trkpt>
      <trkpt lat="44.6424" lon="6.13669">
        <ele>1058.07</ele>
        <time>2015-10-08T08:11:49Z</time>
      </trkpt>
      <trkpt lat="44.64242" lon="6.13673">
        <ele>1058.07</ele>
        <time>2015-10-08T08:11:52Z</time>
      </trkpt>
      <trkpt lat="44.6424" lon="6.1368">
        <ele>1058.55</ele>
        <time>2015-10-08T08:11:57Z</time>
      </trkpt>
      <trkpt lat="44.64229" lon="6.13701">
        <ele>1059.03</ele>
        <time>2015-10-08T08:12:14Z</time>
      </trkpt>
      <trkpt lat="44.64223" lon="6.13712">
        <ele>1059.51</ele>
        <time>2015-10-08T08:12:23Z</time>
      </trkpt>
      <trkpt lat="44.64213" lon="6.13731">
        <ele>1059.99</ele>
        <time>2015-10-08T08:12:39Z</time>
      </trkpt>
      <trkpt lat="44.64202" lon="6.13752">
        <ele>1060.95</ele>
        <time>2015-10-08T08:12:55Z</time>
      </trkpt>
      <trkpt lat="44.64192" lon="6.13772">
        <ele>1061.43</ele>
        <time>2015-10-08T08:13:12Z</time>
      </trkpt>
      <trkpt lat="44.64182" lon="6.13791">
        <ele>1062.39</ele>
        <time>2015-10-08T08:13:29Z</time>
      </trkpt>
      <trkpt lat="44.64171" lon="6.1381">
        <ele>1063.36</ele>
        <time>2015-10-08T08:13:46Z</time>
      </trkpt>
      <trkpt lat="44.64164" lon="6.13821">
        <ele>1063.84</ele>
        <time>2015-10-08T08:13:56Z</time>
      </trkpt>
      <trkpt lat="44.64155" lon="6.13819">
        <ele>1064.32</ele>
        <time>2015-10-08T08:14:09Z</time>
      </trkpt>
      <trkpt lat="44.64147" lon="6.1381">
        <ele>1064.8</ele>
        <time>2015-10-08T08:14:21Z</time>
      </trkpt>
      <trkpt lat="44.64136" lon="6.13798">
        <ele>1066.24</ele>
        <time>2015-10-08T08:14:37Z</time>
      </trkpt>
      <trkpt lat="44.64124" lon="6.13786">
        <ele>1067.2</ele>
        <time>2015-10-08T08:14:53Z</time>
      </trkpt>
      <trkpt lat="44.64112" lon="6.13776">
        <ele>1068.64</ele>
        <time>2015-10-08T08:15:08Z</time>
      </trkpt>
      <trkpt lat="44.64101" lon="6.13768">
        <ele>1070.08</ele>
        <time>2015-10-08T08:15:22Z</time>
      </trkpt>
      <trkpt lat="44.64092" lon="6.13764">
        <ele>1072.01</ele>
        <time>2015-10-08T08:15:36Z</time>
      </trkpt>
      <trkpt lat="44.64084" lon="6.13765">
        <ele>1073.45</ele>
        <time>2015-10-08T08:15:48Z</time>
      </trkpt>
      <trkpt lat="44.64083" lon="6.13768">
        <ele>1073.93</ele>
        <time>2015-10-08T08:16:06Z</time>
      </trkpt>
      <trkpt lat="44.64081" lon="6.13769">
        <ele>1073.93</ele>
        <time>2015-10-08T08:16:23Z</time>
      </trkpt>
      <trkpt lat="44.64076" lon="6.13769">
        <ele>1074.89</ele>
        <time>2015-10-08T08:16:42Z</time>
      </trkpt>
      <trkpt lat="44.64072" lon="6.13769">
        <ele>1075.37</ele>
        <time>2015-10-08T08:16:53Z</time>
      </trkpt>
      <trkpt lat="44.64072" lon="6.13772">
        <ele>1075.37</ele>
        <time>2015-10-08T08:17:19Z</time>
      </trkpt>
      <trkpt lat="44.6406" lon="6.13779">
        <ele>1077.29</ele>
        <time>2015-10-08T08:17:36Z</time>
      </trkpt>
      <trkpt lat="44.64049" lon="6.13784">
        <ele>1078.74</ele>
        <time>2015-10-08T08:17:51Z</time>
      </trkpt>
      <trkpt lat="44.64043" lon="6.1379">
        <ele>1081.14</ele>
        <time>2015-10-08T08:18:05Z</time>
      </trkpt>
      <trkpt lat="44.64029" lon="6.13794">
        <ele>1082.58</ele>
        <time>2015-10-08T08:18:21Z</time>
      </trkpt>
      <trkpt lat="44.64019" lon="6.13799">
        <ele>1084.5</ele>
        <time>2015-10-08T08:18:34Z</time>
      </trkpt>
      <trkpt lat="44.6401" lon="6.13804">
        <ele>1086.43</ele>
        <time>2015-10-08T08:18:49Z</time>
      </trkpt>
      <trkpt lat="44.63997" lon="6.1381">
        <ele>1087.87</ele>
        <time>2015-10-08T08:19:05Z</time>
      </trkpt>
      <trkpt lat="44.63986" lon="6.13815">
        <ele>1088.83</ele>
        <time>2015-10-08T08:19:18Z</time>
      </trkpt>
      <trkpt lat="44.63976" lon="6.13821">
        <ele>1090.27</ele>
        <time>2015-10-08T08:19:33Z</time>
      </trkpt>
      <trkpt lat="44.63964" lon="6.13832">
        <ele>1092.2</ele>
        <time>2015-10-08T08:19:50Z</time>
      </trkpt>
      <trkpt lat="44.63951" lon="6.13841">
        <ele>1093.64</ele>
        <time>2015-10-08T08:20:06Z</time>
      </trkpt>
      <trkpt lat="44.6394" lon="6.13851">
        <ele>1095.08</ele>
        <time>2015-10-08T08:20:21Z</time>
      </trkpt>
      <trkpt lat="44.63929" lon="6.13864">
        <ele>1096.52</ele>
        <time>2015-10-08T08:20:37Z</time>
      </trkpt>
      <trkpt lat="44.6392" lon="6.13879">
        <ele>1097.48</ele>
        <time>2015-10-08T08:20:52Z</time>
      </trkpt>
      <trkpt lat="44.63912" lon="6.13892">
        <ele>1098.44</ele>
        <time>2015-10-08T08:21:06Z</time>
      </trkpt>
      <trkpt lat="44.639" lon="6.13909">
        <ele>1099.4</ele>
        <time>2015-10-08T08:21:23Z</time>
      </trkpt>
      <trkpt lat="44.63899" lon="6.1391">
        <ele>1099.4</ele>
        <time>2015-10-08T08:21:24Z</time>
      </trkpt>
      <trkpt lat="44.6389" lon="6.13926">
        <ele>1100.37</ele>
        <time>2015-10-08T08:21:39Z</time>
      </trkpt>
      <trkpt lat="44.6388" lon="6.13939">
        <ele>1100.85</ele>
        <time>2015-10-08T08:21:53Z</time>
      </trkpt>
      <trkpt lat="44.63868" lon="6.1395">
        <ele>1101.81</ele>
        <time>2015-10-08T08:22:09Z</time>
      </trkpt>
      <trkpt lat="44.63858" lon="6.13959">
        <ele>1102.77</ele>
        <time>2015-10-08T08:22:22Z</time>
      </trkpt>
      <trkpt lat="44.63855" lon="6.13958">
        <ele>1103.25</ele>
        <time>2015-10-08T08:22:27Z</time>
      </trkpt>
      <trkpt lat="44.63848" lon="6.1396">
        <ele>1103.25</ele>
        <time>2015-10-08T08:22:42Z</time>
      </trkpt>
      <trkpt lat="44.63848" lon="6.13961">
        <ele>1103.25</ele>
        <time>2015-10-08T08:23:04Z</time>
      </trkpt>
      <trkpt lat="44.63849" lon="6.13961">
        <ele>1103.25</ele>
        <time>2015-10-08T08:23:26Z</time>
      </trkpt>
      <trkpt lat="44.63844" lon="6.13968">
        <ele>1103.73</ele>
        <time>2015-10-08T08:23:42Z</time>
      </trkpt>
      <trkpt lat="44.63839" lon="6.13979">
        <ele>1105.17</ele>
        <time>2015-10-08T08:23:56Z</time>
      </trkpt>
      <trkpt lat="44.63832" lon="6.13992">
        <ele>1105.65</ele>
        <time>2015-10-08T08:24:12Z</time>
      </trkpt>
      <trkpt lat="44.63826" lon="6.14">
        <ele>1106.61</ele>
        <time>2015-10-08T08:24:22Z</time>
      </trkpt>
      <trkpt lat="44.63815" lon="6.1401">
        <ele>1108.06</ele>
        <time>2015-10-08T08:24:38Z</time>
      </trkpt>
      <trkpt lat="44.63804" lon="6.14018">
        <ele>1109.5</ele>
        <time>2015-10-08T08:24:53Z</time>
      </trkpt>
      <trkpt lat="44.63793" lon="6.14025">
        <ele>1111.42</ele>
        <time>2015-10-08T08:25:08Z</time>
      </trkpt>
      <trkpt lat="44.63784" lon="6.14032">
        <ele>1112.86</ele>
        <time>2015-10-08T08:25:20Z</time>
      </trkpt>
      <trkpt lat="44.63773" lon="6.1404">
        <ele>1114.79</ele>
        <time>2015-10-08T08:25:34Z</time>
      </trkpt>
      <trkpt lat="44.63763" lon="6.14047">
        <ele>1116.71</ele>
        <time>2015-10-08T08:25:47Z</time>
      </trkpt>
      <trkpt lat="44.63755" lon="6.14057">
        <ele>1118.63</ele>
        <time>2015-10-08T08:26:03Z</time>
      </trkpt>
      <trkpt lat="44.63747" lon="6.14065">
        <ele>1121.03</ele>
        <time>2015-10-08T08:26:20Z</time>
      </trkpt>
      <trkpt lat="44.63743" lon="6.14074">
        <ele>1122</ele>
        <time>2015-10-08T08:26:36Z</time>
      </trkpt>
      <trkpt lat="44.63745" lon="6.14086">
        <ele>1122</ele>
        <time>2015-10-08T08:26:50Z</time>
      </trkpt>
      <trkpt lat="44.63743" lon="6.14103">
        <ele>1122.48</ele>
        <time>2015-10-08T08:27:04Z</time>
      </trkpt>
      <trkpt lat="44.63741" lon="6.14109">
        <ele>1122</ele>
        <time>2015-10-08T08:27:09Z</time>
      </trkpt>
      <trkpt lat="44.63734" lon="6.14126">
        <ele>1122.48</ele>
        <time>2015-10-08T08:27:23Z</time>
      </trkpt>
      <trkpt lat="44.63728" lon="6.14144">
        <ele>1122.48</ele>
        <time>2015-10-08T08:27:36Z</time>
      </trkpt>
      <trkpt lat="44.63719" lon="6.14161">
        <ele>1122.48</ele>
        <time>2015-10-08T08:27:51Z</time>
      </trkpt>
      <trkpt lat="44.63703" lon="6.14171">
        <ele>1122.48</ele>
        <time>2015-10-08T08:28:05Z</time>
      </trkpt>
      <trkpt lat="44.63691" lon="6.1418">
        <ele>1122.48</ele>
        <time>2015-10-08T08:28:19Z</time>
      </trkpt>
      <trkpt lat="44.63674" lon="6.14188">
        <ele>1122.96</ele>
        <time>2015-10-08T08:28:34Z</time>
      </trkpt>
      <trkpt lat="44.63665" lon="6.14198">
        <ele>1122.96</ele>
        <time>2015-10-08T08:28:48Z</time>
      </trkpt>
      <trkpt lat="44.63652" lon="6.14203">
        <ele>1122.96</ele>
        <time>2015-10-08T08:29:01Z</time>
      </trkpt>
      <trkpt lat="44.63637" lon="6.14208">
        <ele>1122.96</ele>
        <time>2015-10-08T08:29:18Z</time>
      </trkpt>
      <trkpt lat="44.63623" lon="6.1422">
        <ele>1122.96</ele>
        <time>2015-10-08T08:29:37Z</time>
      </trkpt>
      <trkpt lat="44.63608" lon="6.14228">
        <ele>1123.44</ele>
        <time>2015-10-08T08:29:53Z</time>
      </trkpt>
      <trkpt lat="44.63595" lon="6.14236">
        <ele>1123.44</ele>
        <time>2015-10-08T08:30:07Z</time>
      </trkpt>
      <trkpt lat="44.63593" lon="6.14237">
        <ele>1123.44</ele>
        <time>2015-10-08T08:30:09Z</time>
      </trkpt>
      <trkpt lat="44.63573" lon="6.14247">
        <ele>1123.44</ele>
        <time>2015-10-08T08:30:25Z</time>
      </trkpt>
      <trkpt lat="44.63564" lon="6.14255">
        <ele>1123.44</ele>
        <time>2015-10-08T08:30:39Z</time>
      </trkpt>
      <trkpt lat="44.63557" lon="6.14262">
        <ele>1123.44</ele>
        <time>2015-10-08T08:30:52Z</time>
      </trkpt>
      <trkpt lat="44.63536" lon="6.14269">
        <ele>1123.44</ele>
        <time>2015-10-08T08:31:01Z</time>
      </trkpt>
      <trkpt lat="44.6352" lon="6.14279">
        <ele>1123.44</ele>
        <time>2015-10-08T08:31:16Z</time>
      </trkpt>
      <trkpt lat="44.63512" lon="6.14293">
        <ele>1123.92</ele>
        <time>2015-10-08T08:31:30Z</time>
      </trkpt>
      <trkpt lat="44.63506" lon="6.14303">
        <ele>1123.92</ele>
        <time>2015-10-08T08:31:42Z</time>
      </trkpt>
      <trkpt lat="44.63497" lon="6.14314">
        <ele>1123.44</ele>
        <time>2015-10-08T08:31:54Z</time>
      </trkpt>
      <trkpt lat="44.63489" lon="6.14321">
        <ele>1123.44</ele>
        <time>2015-10-08T08:32:05Z</time>
      </trkpt>
      <trkpt lat="44.63481" lon="6.1433">
        <ele>1123.92</ele>
        <time>2015-10-08T08:32:13Z</time>
      </trkpt>
      <trkpt lat="44.63466" lon="6.14342">
        <ele>1123.44</ele>
        <time>2015-10-08T08:32:28Z</time>
      </trkpt>
      <trkpt lat="44.63453" lon="6.14357">
        <ele>1123.44</ele>
        <time>2015-10-08T08:32:44Z</time>
      </trkpt>
      <trkpt lat="44.63447" lon="6.14371">
        <ele>1122</ele>
        <time>2015-10-08T08:32:59Z</time>
      </trkpt>
      <trkpt lat="44.63439" lon="6.1438">
        <ele>1122.48</ele>
        <time>2015-10-08T08:33:12Z</time>
      </trkpt>
      <trkpt lat="44.63431" lon="6.14392">
        <ele>1123.44</ele>
        <time>2015-10-08T08:33:26Z</time>
      </trkpt>
      <trkpt lat="44.63426" lon="6.14405">
        <ele>1123.44</ele>
        <time>2015-10-08T08:33:36Z</time>
      </trkpt>
      <trkpt lat="44.63425" lon="6.14413">
        <ele>1122.96</ele>
        <time>2015-10-08T08:33:41Z</time>
      </trkpt>
      <trkpt lat="44.63417" lon="6.14427">
        <ele>1123.44</ele>
        <time>2015-10-08T08:33:55Z</time>
      </trkpt>
      <trkpt lat="44.63409" lon="6.14443">
        <ele>1123.92</ele>
        <time>2015-10-08T08:34:08Z</time>
      </trkpt>
      <trkpt lat="44.63405" lon="6.14462">
        <ele>1123.92</ele>
        <time>2015-10-08T08:34:22Z</time>
      </trkpt>
      <trkpt lat="44.63405" lon="6.14463">
        <ele>1123.92</ele>
        <time>2015-10-08T08:34:23Z</time>
      </trkpt>
      <trkpt lat="44.634" lon="6.14482">
        <ele>1123.92</ele>
        <time>2015-10-08T08:34:36Z</time>
      </trkpt>
      <trkpt lat="44.63393" lon="6.14496">
        <ele>1123.92</ele>
        <time>2015-10-08T08:34:49Z</time>
      </trkpt>
      <trkpt lat="44.63392" lon="6.14497">
        <ele>1124.4</ele>
        <time>2015-10-08T08:34:50Z</time>
      </trkpt>
      <trkpt lat="44.63389" lon="6.14501">
        <ele>1123.92</ele>
        <time>2015-10-08T08:34:55Z</time>
      </trkpt>
      <trkpt lat="44.63389" lon="6.14504">
        <ele>1123.92</ele>
        <time>2015-10-08T08:34:57Z</time>
      </trkpt>
      <trkpt lat="44.63387" lon="6.14511">
        <ele>1124.4</ele>
        <time>2015-10-08T08:35:01Z</time>
      </trkpt>
      <trkpt lat="44.63387" lon="6.14524">
        <ele>1124.88</ele>
        <time>2015-10-08T08:35:17Z</time>
      </trkpt>
      <trkpt lat="44.63386" lon="6.14538">
        <ele>1125.84</ele>
        <time>2015-10-08T08:35:33Z</time>
      </trkpt>
      <trkpt lat="44.63386" lon="6.14541">
        <ele>1126.32</ele>
        <time>2015-10-08T08:35:51Z</time>
      </trkpt>
      <trkpt lat="44.63388" lon="6.14543">
        <ele>1126.32</ele>
        <time>2015-10-08T08:36:12Z</time>
      </trkpt>
      <trkpt lat="44.63384" lon="6.14545">
        <ele>1126.32</ele>
        <time>2015-10-08T08:36:32Z</time>
      </trkpt>
      <trkpt lat="44.63387" lon="6.14548">
        <ele>1126.8</ele>
        <time>2015-10-08T08:36:57Z</time>
      </trkpt>
      <trkpt lat="44.63389" lon="6.14544">
        <ele>1127.76</ele>
        <time>2015-10-08T08:37:16Z</time>
      </trkpt>
      <trkpt lat="44.63388" lon="6.14544">
        <ele>1127.76</ele>
        <time>2015-10-08T08:37:29Z</time>
      </trkpt>
      <trkpt lat="44.63388" lon="6.14543">
        <ele>1128.24</ele>
        <time>2015-10-08T08:37:51Z</time>
      </trkpt>
      <trkpt lat="44.6339" lon="6.14541">
        <ele>1128.24</ele>
        <time>2015-10-08T08:38:12Z</time>
      </trkpt>
      <trkpt lat="44.63388" lon="6.14535">
        <ele>1128.24</ele>
        <time>2015-10-08T08:38:32Z</time>
      </trkpt>
      <trkpt lat="44.63387" lon="6.14528">
        <ele>1127.76</ele>
        <time>2015-10-08T08:38:41Z</time>
      </trkpt>
      <trkpt lat="44.63388" lon="6.14522">
        <ele>1127.28</ele>
        <time>2015-10-08T08:38:57Z</time>
      </trkpt>
      <trkpt lat="44.63377" lon="6.14515">
        <ele>1127.28</ele>
        <time>2015-10-08T08:39:30Z</time>
      </trkpt>
      <trkpt lat="44.63372" lon="6.14518">
        <ele>1127.28</ele>
        <time>2015-10-08T08:40:02Z</time>
      </trkpt>
      <trkpt lat="44.63368" lon="6.14509">
        <ele>1127.28</ele>
        <time>2015-10-08T08:40:25Z</time>
      </trkpt>
      <trkpt lat="44.63378" lon="6.14517">
        <ele>1127.76</ele>
        <time>2015-10-08T08:40:54Z</time>
      </trkpt>
      <trkpt lat="44.63382" lon="6.14538">
        <ele>1128.73</ele>
        <time>2015-10-08T08:41:07Z</time>
      </trkpt>
      <trkpt lat="44.63384" lon="6.14536">
        <ele>1128.24</ele>
        <time>2015-10-08T08:41:23Z</time>
      </trkpt>
      <trkpt lat="44.63394" lon="6.14533">
        <ele>1128.24</ele>
        <time>2015-10-08T08:41:44Z</time>
      </trkpt>
      <trkpt lat="44.63387" lon="6.14531">
        <ele>1128.73</ele>
        <time>2015-10-08T08:42:06Z</time>
      </trkpt>
      <trkpt lat="44.63379" lon="6.14537">
        <ele>1128.73</ele>
        <time>2015-10-08T08:42:38Z</time>
      </trkpt>
      <trkpt lat="44.63372" lon="6.14538">
        <ele>1128.73</ele>
        <time>2015-10-08T08:42:56Z</time>
      </trkpt>
      <trkpt lat="44.63373" lon="6.14536">
        <ele>1129.69</ele>
        <time>2015-10-08T08:43:12Z</time>
      </trkpt>
      <trkpt lat="44.63377" lon="6.14536">
        <ele>1129.69</ele>
        <time>2015-10-08T08:43:28Z</time>
      </trkpt>
      <trkpt lat="44.63378" lon="6.14525">
        <ele>1130.17</ele>
        <time>2015-10-08T08:43:52Z</time>
      </trkpt>
      <trkpt lat="44.63376" lon="6.14526">
        <ele>1130.17</ele>
        <time>2015-10-08T08:44:15Z</time>
      </trkpt>
      <trkpt lat="44.63374" lon="6.14529">
        <ele>1130.17</ele>
        <time>2015-10-08T08:44:43Z</time>
      </trkpt>
      <trkpt lat="44.63381" lon="6.1454">
        <ele>1130.17</ele>
        <time>2015-10-08T08:44:53Z</time>
      </trkpt>
      <trkpt lat="44.63379" lon="6.14536">
        <ele>1130.17</ele>
        <time>2015-10-08T08:45:08Z</time>
      </trkpt>
      <trkpt lat="44.63378" lon="6.14531">
        <ele>1130.17</ele>
        <time>2015-10-08T08:45:26Z</time>
      </trkpt>
      <trkpt lat="44.63379" lon="6.14531">
        <ele>1130.17</ele>
        <time>2015-10-08T08:45:58Z</time>
      </trkpt>
      <trkpt lat="44.63377" lon="6.14537">
        <ele>1130.17</ele>
        <time>2015-10-08T08:46:26Z</time>
      </trkpt>
      <trkpt lat="44.63376" lon="6.14532">
        <ele>1130.17</ele>
        <time>2015-10-08T08:46:48Z</time>
      </trkpt>
      <trkpt lat="44.63377" lon="6.14515">
        <ele>1129.69</ele>
        <time>2015-10-08T08:47:04Z</time>
      </trkpt>
      <trkpt lat="44.63375" lon="6.14505">
        <ele>1129.69</ele>
        <time>2015-10-08T08:47:25Z</time>
      </trkpt>
      <trkpt lat="44.63378" lon="6.14492">
        <ele>1129.21</ele>
        <time>2015-10-08T08:47:41Z</time>
      </trkpt>
      <trkpt lat="44.63379" lon="6.14478">
        <ele>1129.21</ele>
        <time>2015-10-08T08:47:56Z</time>
      </trkpt>
      <trkpt lat="44.63385" lon="6.14461">
        <ele>1129.21</ele>
        <time>2015-10-08T08:48:12Z</time>
      </trkpt>
      <trkpt lat="44.63389" lon="6.1444">
        <ele>1129.21</ele>
        <time>2015-10-08T08:48:30Z</time>
      </trkpt>
      <trkpt lat="44.63397" lon="6.1442">
        <ele>1129.21</ele>
        <time>2015-10-08T08:48:46Z</time>
      </trkpt>
      <trkpt lat="44.63401" lon="6.14404">
        <ele>1128.73</ele>
        <time>2015-10-08T08:49:00Z</time>
      </trkpt>
      <trkpt lat="44.6341" lon="6.14388">
        <ele>1128.73</ele>
        <time>2015-10-08T08:49:16Z</time>
      </trkpt>
      <trkpt lat="44.63418" lon="6.14375">
        <ele>1128.24</ele>
        <time>2015-10-08T08:49:29Z</time>
      </trkpt>
      <trkpt lat="44.63434" lon="6.14367">
        <ele>1126.8</ele>
        <time>2015-10-08T08:49:44Z</time>
      </trkpt>
      <trkpt lat="44.63442" lon="6.14357">
        <ele>1127.76</ele>
        <time>2015-10-08T08:49:57Z</time>
      </trkpt>
      <trkpt lat="44.63455" lon="6.14342">
        <ele>1128.24</ele>
        <time>2015-10-08T08:50:15Z</time>
      </trkpt>
      <trkpt lat="44.63466" lon="6.14332">
        <ele>1128.24</ele>
        <time>2015-10-08T08:50:29Z</time>
      </trkpt>
      <trkpt lat="44.6348" lon="6.14315">
        <ele>1128.24</ele>
        <time>2015-10-08T08:50:47Z</time>
      </trkpt>
      <trkpt lat="44.63487" lon="6.14306">
        <ele>1128.24</ele>
        <time>2015-10-08T08:51:01Z</time>
      </trkpt>
      <trkpt lat="44.63492" lon="6.14298">
        <ele>1128.24</ele>
        <time>2015-10-08T08:51:11Z</time>
      </trkpt>
      <trkpt lat="44.63506" lon="6.14288">
        <ele>1128.24</ele>
        <time>2015-10-08T08:51:28Z</time>
      </trkpt>
      <trkpt lat="44.63514" lon="6.14275">
        <ele>1128.24</ele>
        <time>2015-10-08T08:51:41Z</time>
      </trkpt>
      <trkpt lat="44.63526" lon="6.14268">
        <ele>1128.24</ele>
        <time>2015-10-08T08:51:55Z</time>
      </trkpt>
      <trkpt lat="44.6354" lon="6.14256">
        <ele>1127.76</ele>
        <time>2015-10-08T08:52:08Z</time>
      </trkpt>
      <trkpt lat="44.63553" lon="6.14251">
        <ele>1128.24</ele>
        <time>2015-10-08T08:52:21Z</time>
      </trkpt>
      <trkpt lat="44.63566" lon="6.14245">
        <ele>1127.76</ele>
        <time>2015-10-08T08:52:34Z</time>
      </trkpt>
      <trkpt lat="44.63582" lon="6.14234">
        <ele>1127.76</ele>
        <time>2015-10-08T08:52:51Z</time>
      </trkpt>
      <trkpt lat="44.63596" lon="6.14229">
        <ele>1127.76</ele>
        <time>2015-10-08T08:53:05Z</time>
      </trkpt>
      <trkpt lat="44.63611" lon="6.14221">
        <ele>1127.76</ele>
        <time>2015-10-08T08:53:20Z</time>
      </trkpt>
      <trkpt lat="44.63619" lon="6.14216">
        <ele>1127.76</ele>
        <time>2015-10-08T08:53:31Z</time>
      </trkpt>
      <trkpt lat="44.63627" lon="6.1421">
        <ele>1128.24</ele>
        <time>2015-10-08T08:53:42Z</time>
      </trkpt>
      <trkpt lat="44.6364" lon="6.14201">
        <ele>1128.24</ele>
        <time>2015-10-08T08:53:56Z</time>
      </trkpt>
      <trkpt lat="44.63644" lon="6.14201">
        <ele>1127.76</ele>
        <time>2015-10-08T08:54:00Z</time>
      </trkpt>
      <trkpt lat="44.63652" lon="6.14199">
        <ele>1127.76</ele>
        <time>2015-10-08T08:54:08Z</time>
      </trkpt>
      <trkpt lat="44.63666" lon="6.14191">
        <ele>1127.76</ele>
        <time>2015-10-08T08:54:23Z</time>
      </trkpt>
      <trkpt lat="44.63676" lon="6.14181">
        <ele>1127.76</ele>
        <time>2015-10-08T08:54:37Z</time>
      </trkpt>
      <trkpt lat="44.63691" lon="6.14169">
        <ele>1127.28</ele>
        <time>2015-10-08T08:54:54Z</time>
      </trkpt>
      <trkpt lat="44.63699" lon="6.14163">
        <ele>1127.28</ele>
        <time>2015-10-08T08:55:03Z</time>
      </trkpt>
      <trkpt lat="44.63709" lon="6.14151">
        <ele>1127.76</ele>
        <time>2015-10-08T08:55:17Z</time>
      </trkpt>
      <trkpt lat="44.63719" lon="6.14134">
        <ele>1127.28</ele>
        <time>2015-10-08T08:55:32Z</time>
      </trkpt>
      <trkpt lat="44.63723" lon="6.14113">
        <ele>1126.8</ele>
        <time>2015-10-08T08:55:48Z</time>
      </trkpt>
      <trkpt lat="44.63726" lon="6.14094">
        <ele>1126.8</ele>
        <time>2015-10-08T08:56:02Z</time>
      </trkpt>
      <trkpt lat="44.63728" lon="6.14077">
        <ele>1126.8</ele>
        <time>2015-10-08T08:56:16Z</time>
      </trkpt>
      <trkpt lat="44.63728" lon="6.14066">
        <ele>1127.28</ele>
        <time>2015-10-08T08:56:31Z</time>
      </trkpt>
      <trkpt lat="44.63727" lon="6.14075">
        <ele>1129.21</ele>
        <time>2015-10-08T08:56:45Z</time>
      </trkpt>
      <trkpt lat="44.63724" lon="6.14084">
        <ele>1131.61</ele>
        <time>2015-10-08T08:57:00Z</time>
      </trkpt>
      <trkpt lat="44.63723" lon="6.14099">
        <ele>1132.57</ele>
        <time>2015-10-08T08:57:15Z</time>
      </trkpt>
      <trkpt lat="44.6372" lon="6.14109">
        <ele>1134.01</ele>
        <time>2015-10-08T08:57:28Z</time>
      </trkpt>
      <trkpt lat="44.63715" lon="6.14122">
        <ele>1135.45</ele>
        <time>2015-10-08T08:57:44Z</time>
      </trkpt>
      <trkpt lat="44.63709" lon="6.14134">
        <ele>1136.9</ele>
        <time>2015-10-08T08:57:59Z</time>
      </trkpt>
      <trkpt lat="44.63699" lon="6.14135">
        <ele>1138.82</ele>
        <time>2015-10-08T08:58:13Z</time>
      </trkpt>
      <trkpt lat="44.63691" lon="6.14125">
        <ele>1140.74</ele>
        <time>2015-10-08T08:58:28Z</time>
      </trkpt>
      <trkpt lat="44.63685" lon="6.1412">
        <ele>1142.18</ele>
        <time>2015-10-08T08:58:41Z</time>
      </trkpt>
      <trkpt lat="44.63675" lon="6.14118">
        <ele>1143.63</ele>
        <time>2015-10-08T08:58:55Z</time>
      </trkpt>
      <trkpt lat="44.63667" lon="6.14121">
        <ele>1145.07</ele>
        <time>2015-10-08T08:59:10Z</time>
      </trkpt>
      <trkpt lat="44.63654" lon="6.14125">
        <ele>1147.47</ele>
        <time>2015-10-08T08:59:27Z</time>
      </trkpt>
      <trkpt lat="44.63642" lon="6.14129">
        <ele>1148.91</ele>
        <time>2015-10-08T08:59:41Z</time>
      </trkpt>
      <trkpt lat="44.63635" lon="6.14133">
        <ele>1150.84</ele>
        <time>2015-10-08T08:59:56Z</time>
      </trkpt>
      <trkpt lat="44.63625" lon="6.14139">
        <ele>1152.76</ele>
        <time>2015-10-08T09:00:10Z</time>
      </trkpt>
      <trkpt lat="44.63614" lon="6.14142">
        <ele>1154.2</ele>
        <time>2015-10-08T09:00:25Z</time>
      </trkpt>
      <trkpt lat="44.63608" lon="6.14146">
        <ele>1155.16</ele>
        <time>2015-10-08T09:00:42Z</time>
      </trkpt>
      <trkpt lat="44.63608" lon="6.14149">
        <ele>1155.16</ele>
        <time>2015-10-08T09:01:10Z</time>
      </trkpt>
      <trkpt lat="44.63611" lon="6.14145">
        <ele>1155.64</ele>
        <time>2015-10-08T09:01:43Z</time>
      </trkpt>
      <trkpt lat="44.63609" lon="6.14146">
        <ele>1155.16</ele>
        <time>2015-10-08T09:02:11Z</time>
      </trkpt>
      <trkpt lat="44.63606" lon="6.14143">
        <ele>1155.16</ele>
        <time>2015-10-08T09:02:36Z</time>
      </trkpt>
      <trkpt lat="44.63593" lon="6.14143">
        <ele>1157.08</ele>
        <time>2015-10-08T09:02:51Z</time>
      </trkpt>
      <trkpt lat="44.63584" lon="6.14141">
        <ele>1158.05</ele>
        <time>2015-10-08T09:03:04Z</time>
      </trkpt>
      <trkpt lat="44.63572" lon="6.14145">
        <ele>1159.01</ele>
        <time>2015-10-08T09:03:19Z</time>
      </trkpt>
      <trkpt lat="44.63561" lon="6.14154">
        <ele>1159.97</ele>
        <time>2015-10-08T09:03:34Z</time>
      </trkpt>
      <trkpt lat="44.63551" lon="6.14166">
        <ele>1160.45</ele>
        <time>2015-10-08T09:03:48Z</time>
      </trkpt>
      <trkpt lat="44.63538" lon="6.14174">
        <ele>1160.93</ele>
        <time>2015-10-08T09:04:03Z</time>
      </trkpt>
      <trkpt lat="44.63525" lon="6.1418">
        <ele>1161.41</ele>
        <time>2015-10-08T09:04:19Z</time>
      </trkpt>
      <trkpt lat="44.63509" lon="6.14186">
        <ele>1161.89</ele>
        <time>2015-10-08T09:04:36Z</time>
      </trkpt>
      <trkpt lat="44.63497" lon="6.14191">
        <ele>1162.85</ele>
        <time>2015-10-08T09:04:51Z</time>
      </trkpt>
      <trkpt lat="44.63485" lon="6.14195">
        <ele>1163.81</ele>
        <time>2015-10-08T09:05:06Z</time>
      </trkpt>
      <trkpt lat="44.63474" lon="6.14202">
        <ele>1165.26</ele>
        <time>2015-10-08T09:05:20Z</time>
      </trkpt>
      <trkpt lat="44.63463" lon="6.14209">
        <ele>1166.7</ele>
        <time>2015-10-08T09:05:35Z</time>
      </trkpt>
      <trkpt lat="44.63452" lon="6.14212">
        <ele>1168.62</ele>
        <time>2015-10-08T09:05:49Z</time>
      </trkpt>
      <trkpt lat="44.63442" lon="6.14211">
        <ele>1170.54</ele>
        <time>2015-10-08T09:06:03Z</time>
      </trkpt>
      <trkpt lat="44.63434" lon="6.14206">
        <ele>1171.98</ele>
        <time>2015-10-08T09:06:14Z</time>
      </trkpt>
      <trkpt lat="44.63428" lon="6.14199">
        <ele>1173.43</ele>
        <time>2015-10-08T09:06:27Z</time>
      </trkpt>
      <trkpt lat="44.63422" lon="6.14191">
        <ele>1175.35</ele>
        <time>2015-10-08T09:06:41Z</time>
      </trkpt>
      <trkpt lat="44.63415" lon="6.14181">
        <ele>1176.31</ele>
        <time>2015-10-08T09:06:56Z</time>
      </trkpt>
      <trkpt lat="44.63408" lon="6.1417">
        <ele>1178.23</ele>
        <time>2015-10-08T09:07:11Z</time>
      </trkpt>
      <trkpt lat="44.634" lon="6.14158">
        <ele>1180.16</ele>
        <time>2015-10-08T09:07:26Z</time>
      </trkpt>
      <trkpt lat="44.6339" lon="6.14152">
        <ele>1182.08</ele>
        <time>2015-10-08T09:07:42Z</time>
      </trkpt>
      <trkpt lat="44.63381" lon="6.1415">
        <ele>1184</ele>
        <time>2015-10-08T09:07:57Z</time>
      </trkpt>
      <trkpt lat="44.63373" lon="6.14154">
        <ele>1185.44</ele>
        <time>2015-10-08T09:08:10Z</time>
      </trkpt>
      <trkpt lat="44.63363" lon="6.14163">
        <ele>1186.88</ele>
        <time>2015-10-08T09:08:24Z</time>
      </trkpt>
      <trkpt lat="44.63356" lon="6.14168">
        <ele>1188.33</ele>
        <time>2015-10-08T09:08:37Z</time>
      </trkpt>
      <trkpt lat="44.63349" lon="6.14175">
        <ele>1189.29</ele>
        <time>2015-10-08T09:08:50Z</time>
      </trkpt>
      <trkpt lat="44.6334" lon="6.1418">
        <ele>1190.25</ele>
        <time>2015-10-08T09:09:03Z</time>
      </trkpt>
      <trkpt lat="44.6333" lon="6.14187">
        <ele>1190.73</ele>
        <time>2015-10-08T09:09:16Z</time>
      </trkpt>
      <trkpt lat="44.63321" lon="6.14193">
        <ele>1191.69</ele>
        <time>2015-10-08T09:09:29Z</time>
      </trkpt>
      <trkpt lat="44.63316" lon="6.14193">
        <ele>1192.65</ele>
        <time>2015-10-08T09:09:40Z</time>
      </trkpt>
      <trkpt lat="44.63316" lon="6.14192">
        <ele>1192.17</ele>
        <time>2015-10-08T09:10:00Z</time>
      </trkpt>
      <trkpt lat="44.63316" lon="6.14196">
        <ele>1192.17</ele>
        <time>2015-10-08T09:10:29Z</time>
      </trkpt>
      <trkpt lat="44.6332" lon="6.14193">
        <ele>1192.17</ele>
        <time>2015-10-08T09:11:00Z</time>
      </trkpt>
      <trkpt lat="44.63316" lon="6.14204">
        <ele>1191.69</ele>
        <time>2015-10-08T09:11:24Z</time>
      </trkpt>
      <trkpt lat="44.63309" lon="6.14219">
        <ele>1192.17</ele>
        <time>2015-10-08T09:11:38Z</time>
      </trkpt>
      <trkpt lat="44.63306" lon="6.14229">
        <ele>1192.65</ele>
        <time>2015-10-08T09:11:50Z</time>
      </trkpt>
      <trkpt lat="44.63304" lon="6.14234">
        <ele>1192.65</ele>
        <time>2015-10-08T09:11:54Z</time>
      </trkpt>
      <trkpt lat="44.63301" lon="6.14246">
        <ele>1193.13</ele>
        <time>2015-10-08T09:12:04Z</time>
      </trkpt>
      <trkpt lat="44.63295" lon="6.14264">
        <ele>1193.61</ele>
        <time>2015-10-08T09:12:19Z</time>
      </trkpt>
      <trkpt lat="44.63291" lon="6.14289">
        <ele>1193.13</ele>
        <time>2015-10-08T09:12:36Z</time>
      </trkpt>
      <trkpt lat="44.63283" lon="6.14309">
        <ele>1192.65</ele>
        <time>2015-10-08T09:12:52Z</time>
      </trkpt>
      <trkpt lat="44.63267" lon="6.14317">
        <ele>1193.61</ele>
        <time>2015-10-08T09:13:08Z</time>
      </trkpt>
      <trkpt lat="44.63252" lon="6.14322">
        <ele>1195.06</ele>
        <time>2015-10-08T09:13:25Z</time>
      </trkpt>
      <trkpt lat="44.63246" lon="6.14328">
        <ele>1196.02</ele>
        <time>2015-10-08T09:13:33Z</time>
      </trkpt>
      <trkpt lat="44.63242" lon="6.14333">
        <ele>1196.5</ele>
        <time>2015-10-08T09:13:38Z</time>
      </trkpt>
      <trkpt lat="44.63238" lon="6.14352">
        <ele>1196.98</ele>
        <time>2015-10-08T09:13:53Z</time>
      </trkpt>
      <trkpt lat="44.63234" lon="6.14369">
        <ele>1197.46</ele>
        <time>2015-10-08T09:14:07Z</time>
      </trkpt>
      <trkpt lat="44.6323" lon="6.14388">
        <ele>1197.94</ele>
        <time>2015-10-08T09:14:22Z</time>
      </trkpt>
      <trkpt lat="44.63227" lon="6.144">
        <ele>1197.94</ele>
        <time>2015-10-08T09:14:32Z</time>
      </trkpt>
      <trkpt lat="44.63226" lon="6.14408">
        <ele>1198.42</ele>
        <time>2015-10-08T09:14:40Z</time>
      </trkpt>
      <trkpt lat="44.63223" lon="6.14424">
        <ele>1199.86</ele>
        <time>2015-10-08T09:14:54Z</time>
      </trkpt>
      <trkpt lat="44.63221" lon="6.14422">
        <ele>1200.34</ele>
        <time>2015-10-08T09:15:06Z</time>
      </trkpt>
      <trkpt lat="44.63222" lon="6.14428">
        <ele>1200.34</ele>
        <time>2015-10-08T09:15:25Z</time>
      </trkpt>
      <trkpt lat="44.63222" lon="6.14434">
        <ele>1200.82</ele>
        <time>2015-10-08T09:15:39Z</time>
      </trkpt>
      <trkpt lat="44.63223" lon="6.14454">
        <ele>1202.27</ele>
        <time>2015-10-08T09:15:54Z</time>
      </trkpt>
      <trkpt lat="44.63224" lon="6.14461">
        <ele>1202.75</ele>
        <time>2015-10-08T09:15:59Z</time>
      </trkpt>
      <trkpt lat="44.63223" lon="6.14485">
        <ele>1203.23</ele>
        <time>2015-10-08T09:16:16Z</time>
      </trkpt>
      <trkpt lat="44.63223" lon="6.145">
        <ele>1203.71</ele>
        <time>2015-10-08T09:16:28Z</time>
      </trkpt>
      <trkpt lat="44.63219" lon="6.14507">
        <ele>1203.23</ele>
        <time>2015-10-08T09:16:35Z</time>
      </trkpt>
      <trkpt lat="44.63212" lon="6.14522">
        <ele>1202.75</ele>
        <time>2015-10-08T09:16:49Z</time>
      </trkpt>
      <trkpt lat="44.63209" lon="6.14529">
        <ele>1202.75</ele>
        <time>2015-10-08T09:16:55Z</time>
      </trkpt>
      <trkpt lat="44.63204" lon="6.14546">
        <ele>1203.71</ele>
        <time>2015-10-08T09:17:10Z</time>
      </trkpt>
      <trkpt lat="44.63204" lon="6.14551">
        <ele>1203.23</ele>
        <time>2015-10-08T09:17:25Z</time>
      </trkpt>
      <trkpt lat="44.63198" lon="6.14541">
        <ele>1202.75</ele>
        <time>2015-10-08T09:17:53Z</time>
      </trkpt>
      <trkpt lat="44.63204" lon="6.14545">
        <ele>1203.71</ele>
        <time>2015-10-08T09:18:15Z</time>
      </trkpt>
      <trkpt lat="44.63202" lon="6.14551">
        <ele>1204.19</ele>
        <time>2015-10-08T09:18:32Z</time>
      </trkpt>
      <trkpt lat="44.63202" lon="6.14554">
        <ele>1204.19</ele>
        <time>2015-10-08T09:18:55Z</time>
      </trkpt>
      <trkpt lat="44.63203" lon="6.14567">
        <ele>1206.59</ele>
        <time>2015-10-08T09:19:09Z</time>
      </trkpt>
      <trkpt lat="44.63201" lon="6.1458">
        <ele>1207.55</ele>
        <time>2015-10-08T09:19:23Z</time>
      </trkpt>
      <trkpt lat="44.63195" lon="6.14583">
        <ele>1209</ele>
        <time>2015-10-08T09:19:36Z</time>
      </trkpt>
      <trkpt lat="44.63194" lon="6.14581">
        <ele>1209</ele>
        <time>2015-10-08T09:19:54Z</time>
      </trkpt>
      <trkpt lat="44.63186" lon="6.14567">
        <ele>1210.44</ele>
        <time>2015-10-08T09:20:08Z</time>
      </trkpt>
      <trkpt lat="44.6318" lon="6.14551">
        <ele>1210.92</ele>
        <time>2015-10-08T09:20:22Z</time>
      </trkpt>
      <trkpt lat="44.63176" lon="6.1455">
        <ele>1210.92</ele>
        <time>2015-10-08T09:20:39Z</time>
      </trkpt>
      <trkpt lat="44.63177" lon="6.14541">
        <ele>1211.4</ele>
        <time>2015-10-08T09:20:56Z</time>
      </trkpt>
      <trkpt lat="44.63176" lon="6.1454">
        <ele>1211.4</ele>
        <time>2015-10-08T09:21:11Z</time>
      </trkpt>
      <trkpt lat="44.63173" lon="6.14535">
        <ele>1211.4</ele>
        <time>2015-10-08T09:21:22Z</time>
      </trkpt>
      <trkpt lat="44.63172" lon="6.14527">
        <ele>1211.88</ele>
        <time>2015-10-08T09:21:38Z</time>
      </trkpt>
      <trkpt lat="44.63171" lon="6.1452">
        <ele>1211.88</ele>
        <time>2015-10-08T09:21:52Z</time>
      </trkpt>
      <trkpt lat="44.6317" lon="6.14519">
        <ele>1211.88</ele>
        <time>2015-10-08T09:22:15Z</time>
      </trkpt>
      <trkpt lat="44.6317" lon="6.14521">
        <ele>1211.88</ele>
        <time>2015-10-08T09:22:34Z</time>
      </trkpt>
      <trkpt lat="44.63171" lon="6.14521">
        <ele>1211.88</ele>
        <time>2015-10-08T09:22:52Z</time>
      </trkpt>
      <trkpt lat="44.63168" lon="6.14518">
        <ele>1211.88</ele>
        <time>2015-10-08T09:23:13Z</time>
      </trkpt>
      <trkpt lat="44.63169" lon="6.14519">
        <ele>1211.88</ele>
        <time>2015-10-08T09:23:29Z</time>
      </trkpt>
      <trkpt lat="44.63165" lon="6.14513">
        <ele>1212.36</ele>
        <time>2015-10-08T09:23:59Z</time>
      </trkpt>
      <trkpt lat="44.6317" lon="6.1452">
        <ele>1211.88</ele>
        <time>2015-10-08T09:24:18Z</time>
      </trkpt>
      <trkpt lat="44.6317" lon="6.14521">
        <ele>1211.88</ele>
        <time>2015-10-08T09:24:35Z</time>
      </trkpt>
      <trkpt lat="44.6317" lon="6.14522">
        <ele>1211.88</ele>
        <time>2015-10-08T09:24:53Z</time>
      </trkpt>
      <trkpt lat="44.6317" lon="6.1452">
        <ele>1212.84</ele>
        <time>2015-10-08T09:25:12Z</time>
      </trkpt>
      <trkpt lat="44.6317" lon="6.14517">
        <ele>1211.4</ele>
        <time>2015-10-08T09:25:32Z</time>
      </trkpt>
      <trkpt lat="44.63167" lon="6.14514">
        <ele>1211.4</ele>
        <time>2015-10-08T09:25:51Z</time>
      </trkpt>
      <trkpt lat="44.63164" lon="6.14506">
        <ele>1211.4</ele>
        <time>2015-10-08T09:26:05Z</time>
      </trkpt>
      <trkpt lat="44.63164" lon="6.14505">
        <ele>1211.4</ele>
        <time>2015-10-08T09:26:06Z</time>
      </trkpt>
      <trkpt lat="44.63158" lon="6.14491">
        <ele>1212.36</ele>
        <time>2015-10-08T09:26:20Z</time>
      </trkpt>
      <trkpt lat="44.63153" lon="6.14471">
        <ele>1212.84</ele>
        <time>2015-10-08T09:26:35Z</time>
      </trkpt>
      <trkpt lat="44.63146" lon="6.14453">
        <ele>1213.32</ele>
        <time>2015-10-08T09:26:50Z</time>
      </trkpt>
      <trkpt lat="44.63143" lon="6.14446">
        <ele>1213.32</ele>
        <time>2015-10-08T09:27:07Z</time>
      </trkpt>
      <trkpt lat="44.6314" lon="6.14433">
        <ele>1213.8</ele>
        <time>2015-10-08T09:27:23Z</time>
      </trkpt>
      <trkpt lat="44.63136" lon="6.14426">
        <ele>1214.28</ele>
        <time>2015-10-08T09:27:39Z</time>
      </trkpt>
      <trkpt lat="44.63138" lon="6.14423">
        <ele>1214.28</ele>
        <time>2015-10-08T09:28:02Z</time>
      </trkpt>
      <trkpt lat="44.63133" lon="6.14418">
        <ele>1214.28</ele>
        <time>2015-10-08T09:28:24Z</time>
      </trkpt>
      <trkpt lat="44.63128" lon="6.14399">
        <ele>1214.76</ele>
        <time>2015-10-08T09:28:43Z</time>
      </trkpt>
      <trkpt lat="44.63121" lon="6.14383">
        <ele>1215.24</ele>
        <time>2015-10-08T09:28:59Z</time>
      </trkpt>
      <trkpt lat="44.63115" lon="6.14378">
        <ele>1215.24</ele>
        <time>2015-10-08T09:29:11Z</time>
      </trkpt>
      <trkpt lat="44.63102" lon="6.14376">
        <ele>1215.72</ele>
        <time>2015-10-08T09:29:27Z</time>
      </trkpt>
      <trkpt lat="44.63091" lon="6.14371">
        <ele>1216.69</ele>
        <time>2015-10-08T09:29:42Z</time>
      </trkpt>
      <trkpt lat="44.63086" lon="6.14367">
        <ele>1217.17</ele>
        <time>2015-10-08T09:30:01Z</time>
      </trkpt>
      <trkpt lat="44.63082" lon="6.14365">
        <ele>1217.65</ele>
        <time>2015-10-08T09:30:18Z</time>
      </trkpt>
      <trkpt lat="44.63082" lon="6.14362">
        <ele>1217.65</ele>
        <time>2015-10-08T09:30:44Z</time>
      </trkpt>
      <trkpt lat="44.63082" lon="6.14362">
        <ele>1217.17</ele>
        <time>2015-10-08T09:31:11Z</time>
      </trkpt>
      <trkpt lat="44.63082" lon="6.14361">
        <ele>1217.65</ele>
        <time>2015-10-08T09:31:32Z</time>
      </trkpt>
      <trkpt lat="44.63084" lon="6.14358">
        <ele>1217.65</ele>
        <time>2015-10-08T09:31:51Z</time>
      </trkpt>
      <trkpt lat="44.63092" lon="6.14354">
        <ele>1216.69</ele>
        <time>2015-10-08T09:32:04Z</time>
      </trkpt>
      <trkpt lat="44.63096" lon="6.14346">
        <ele>1216.21</ele>
        <time>2015-10-08T09:32:11Z</time>
      </trkpt>
      <trkpt lat="44.63102" lon="6.14324">
        <ele>1214.76</ele>
        <time>2015-10-08T09:32:29Z</time>
      </trkpt>
      <trkpt lat="44.63106" lon="6.14296">
        <ele>1213.32</ele>
        <time>2015-10-08T09:32:48Z</time>
      </trkpt>
      <trkpt lat="44.63111" lon="6.14271">
        <ele>1211.4</ele>
        <time>2015-10-08T09:33:06Z</time>
      </trkpt>
      <trkpt lat="44.63116" lon="6.14248">
        <ele>1209.96</ele>
        <time>2015-10-08T09:33:22Z</time>
      </trkpt>
      <trkpt lat="44.63122" lon="6.14226">
        <ele>1208.51</ele>
        <time>2015-10-08T09:33:39Z</time>
      </trkpt>
      <trkpt lat="44.63124" lon="6.14221">
        <ele>1208.03</ele>
        <time>2015-10-08T09:33:42Z</time>
      </trkpt>
      <trkpt lat="44.6313" lon="6.1421">
        <ele>1207.07</ele>
        <time>2015-10-08T09:33:51Z</time>
      </trkpt>
      <trkpt lat="44.63143" lon="6.14194">
        <ele>1205.15</ele>
        <time>2015-10-08T09:34:08Z</time>
      </trkpt>
      <trkpt lat="44.63152" lon="6.14175">
        <ele>1203.71</ele>
        <time>2015-10-08T09:34:23Z</time>
      </trkpt>
      <trkpt lat="44.63152" lon="6.14174">
        <ele>1203.71</ele>
        <time>2015-10-08T09:34:24Z</time>
      </trkpt>
      <trkpt lat="44.63156" lon="6.1415">
        <ele>1202.27</ele>
        <time>2015-10-08T09:34:41Z</time>
      </trkpt>
      <trkpt lat="44.63158" lon="6.14129">
        <ele>1200.82</ele>
        <time>2015-10-08T09:34:55Z</time>
      </trkpt>
      <trkpt lat="44.63159" lon="6.1412">
        <ele>1200.34</ele>
        <time>2015-10-08T09:35:00Z</time>
      </trkpt>
      <trkpt lat="44.63162" lon="6.14093">
        <ele>1198.9</ele>
        <time>2015-10-08T09:35:17Z</time>
      </trkpt>
      <trkpt lat="44.63164" lon="6.14066">
        <ele>1196.98</ele>
        <time>2015-10-08T09:35:36Z</time>
      </trkpt>
      <trkpt lat="44.63166" lon="6.14049">
        <ele>1195.54</ele>
        <time>2015-10-08T09:35:52Z</time>
      </trkpt>
      <trkpt lat="44.63167" lon="6.14036">
        <ele>1194.58</ele>
        <time>2015-10-08T09:36:01Z</time>
      </trkpt>
      <trkpt lat="44.6317" lon="6.14013">
        <ele>1193.61</ele>
        <time>2015-10-08T09:36:18Z</time>
      </trkpt>
      <trkpt lat="44.63176" lon="6.13999">
        <ele>1191.69</ele>
        <time>2015-10-08T09:36:29Z</time>
      </trkpt>
      <trkpt lat="44.6319" lon="6.13991">
        <ele>1190.25</ele>
        <time>2015-10-08T09:36:44Z</time>
      </trkpt>
      <trkpt lat="44.63207" lon="6.13986">
        <ele>1189.77</ele>
        <time>2015-10-08T09:37:00Z</time>
      </trkpt>
      <trkpt lat="44.63216" lon="6.13981">
        <ele>1188.81</ele>
        <time>2015-10-08T09:37:08Z</time>
      </trkpt>
      <trkpt lat="44.63228" lon="6.13967">
        <ele>1187.85</ele>
        <time>2015-10-08T09:37:26Z</time>
      </trkpt>
      <trkpt lat="44.6323" lon="6.13964">
        <ele>1187.37</ele>
        <time>2015-10-08T09:37:44Z</time>
      </trkpt>
      <trkpt lat="44.63232" lon="6.1396">
        <ele>1186.88</ele>
        <time>2015-10-08T09:37:56Z</time>
      </trkpt>
      <trkpt lat="44.63231" lon="6.1396">
        <ele>1186.88</ele>
        <time>2015-10-08T09:38:16Z</time>
      </trkpt>
      <trkpt lat="44.63233" lon="6.13956">
        <ele>1186.88</ele>
        <time>2015-10-08T09:38:33Z</time>
      </trkpt>
      <trkpt lat="44.6324" lon="6.13938">
        <ele>1185.44</ele>
        <time>2015-10-08T09:38:48Z</time>
      </trkpt>
      <trkpt lat="44.6325" lon="6.13921">
        <ele>1184.48</ele>
        <time>2015-10-08T09:39:03Z</time>
      </trkpt>
      <trkpt lat="44.63254" lon="6.13914">
        <ele>1183.52</ele>
        <time>2015-10-08T09:39:09Z</time>
      </trkpt>
      <trkpt lat="44.63259" lon="6.13906">
        <ele>1183.04</ele>
        <time>2015-10-08T09:39:17Z</time>
      </trkpt>
      <trkpt lat="44.63278" lon="6.13897">
        <ele>1182.08</ele>
        <time>2015-10-08T09:39:36Z</time>
      </trkpt>
      <trkpt lat="44.63294" lon="6.13889">
        <ele>1181.6</ele>
        <time>2015-10-08T09:39:53Z</time>
      </trkpt>
      <trkpt lat="44.6331" lon="6.13884">
        <ele>1181.12</ele>
        <time>2015-10-08T09:40:11Z</time>
      </trkpt>
      <trkpt lat="44.63323" lon="6.13881">
        <ele>1180.64</ele>
        <time>2015-10-08T09:40:28Z</time>
      </trkpt>
      <trkpt lat="44.63338" lon="6.13876">
        <ele>1180.64</ele>
        <time>2015-10-08T09:40:45Z</time>
      </trkpt>
      <trkpt lat="44.63348" lon="6.1387">
        <ele>1180.16</ele>
        <time>2015-10-08T09:40:59Z</time>
      </trkpt>
      <trkpt lat="44.63351" lon="6.13864">
        <ele>1180.16</ele>
        <time>2015-10-08T09:41:05Z</time>
      </trkpt>
      <trkpt lat="44.63355" lon="6.13847">
        <ele>1180.16</ele>
        <time>2015-10-08T09:41:19Z</time>
      </trkpt>
      <trkpt lat="44.63357" lon="6.13824">
        <ele>1180.16</ele>
        <time>2015-10-08T09:41:37Z</time>
      </trkpt>
      <trkpt lat="44.63359" lon="6.13805">
        <ele>1179.67</ele>
        <time>2015-10-08T09:41:54Z</time>
      </trkpt>
      <trkpt lat="44.63359" lon="6.13787">
        <ele>1179.67</ele>
        <time>2015-10-08T09:42:09Z</time>
      </trkpt>
      <trkpt lat="44.6336" lon="6.13766">
        <ele>1179.19</ele>
        <time>2015-10-08T09:42:25Z</time>
      </trkpt>
      <trkpt lat="44.63361" lon="6.13745">
        <ele>1178.71</ele>
        <time>2015-10-08T09:42:42Z</time>
      </trkpt>
      <trkpt lat="44.63361" lon="6.13726">
        <ele>1177.75</ele>
        <time>2015-10-08T09:42:59Z</time>
      </trkpt>
      <trkpt lat="44.63359" lon="6.13707">
        <ele>1176.79</ele>
        <time>2015-10-08T09:43:16Z</time>
      </trkpt>
      <trkpt lat="44.63355" lon="6.13699">
        <ele>1176.79</ele>
        <time>2015-10-08T09:43:24Z</time>
      </trkpt>
      <trkpt lat="44.63348" lon="6.13682">
        <ele>1175.35</ele>
        <time>2015-10-08T09:43:40Z</time>
      </trkpt>
      <trkpt lat="44.63345" lon="6.13663">
        <ele>1174.87</ele>
        <time>2015-10-08T09:43:56Z</time>
      </trkpt>
      <trkpt lat="44.63344" lon="6.13652">
        <ele>1174.87</ele>
        <time>2015-10-08T09:44:05Z</time>
      </trkpt>
      <trkpt lat="44.63346" lon="6.13637">
        <ele>1174.39</ele>
        <time>2015-10-08T09:44:14Z</time>
      </trkpt>
      <trkpt lat="44.63347" lon="6.13635">
        <ele>1174.39</ele>
        <time>2015-10-08T09:44:16Z</time>
      </trkpt>
      <trkpt lat="44.63352" lon="6.13613">
        <ele>1174.87</ele>
        <time>2015-10-08T09:44:33Z</time>
      </trkpt>
      <trkpt lat="44.63356" lon="6.13593">
        <ele>1174.39</ele>
        <time>2015-10-08T09:44:49Z</time>
      </trkpt>
      <trkpt lat="44.63354" lon="6.13582">
        <ele>1173.43</ele>
        <time>2015-10-08T09:45:03Z</time>
      </trkpt>
      <trkpt lat="44.63348" lon="6.13576">
        <ele>1172.95</ele>
        <time>2015-10-08T09:45:19Z</time>
      </trkpt>
      <trkpt lat="44.63344" lon="6.13575">
        <ele>1173.43</ele>
        <time>2015-10-08T09:45:33Z</time>
      </trkpt>
      <trkpt lat="44.63341" lon="6.13573">
        <ele>1173.43</ele>
        <time>2015-10-08T09:45:48Z</time>
      </trkpt>
      <trkpt lat="44.63339" lon="6.13573">
        <ele>1172.95</ele>
        <time>2015-10-08T09:46:14Z</time>
      </trkpt>
      <trkpt lat="44.6334" lon="6.13572">
        <ele>1173.43</ele>
        <time>2015-10-08T09:46:29Z</time>
      </trkpt>
      <trkpt lat="44.63338" lon="6.13571">
        <ele>1173.43</ele>
        <time>2015-10-08T09:46:47Z</time>
      </trkpt>
      <trkpt lat="44.63339" lon="6.13571">
        <ele>1173.43</ele>
        <time>2015-10-08T09:47:00Z</time>
      </trkpt>
      <trkpt lat="44.63338" lon="6.13567">
        <ele>1173.43</ele>
        <time>2015-10-08T09:47:16Z</time>
      </trkpt>
      <trkpt lat="44.63344" lon="6.13557">
        <ele>1172.95</ele>
        <time>2015-10-08T09:47:29Z</time>
      </trkpt>
      <trkpt lat="44.63348" lon="6.13547">
        <ele>1172.47</ele>
        <time>2015-10-08T09:47:41Z</time>
      </trkpt>
      <trkpt lat="44.63346" lon="6.13544">
        <ele>1172.95</ele>
        <time>2015-10-08T09:47:51Z</time>
      </trkpt>
      <trkpt lat="44.63345" lon="6.13546">
        <ele>1172.95</ele>
        <time>2015-10-08T09:48:07Z</time>
      </trkpt>
      <trkpt lat="44.63347" lon="6.13541">
        <ele>1172.95</ele>
        <time>2015-10-08T09:48:22Z</time>
      </trkpt>
      <trkpt lat="44.63349" lon="6.13543">
        <ele>1172.95</ele>
        <time>2015-10-08T09:48:37Z</time>
      </trkpt>
      <trkpt lat="44.63349" lon="6.13542">
        <ele>1172.95</ele>
        <time>2015-10-08T09:48:57Z</time>
      </trkpt>
      <trkpt lat="44.6335" lon="6.13539">
        <ele>1172.95</ele>
        <time>2015-10-08T09:49:03Z</time>
      </trkpt>
      <trkpt lat="44.63362" lon="6.13522">
        <ele>1172.47</ele>
        <time>2015-10-08T09:49:21Z</time>
      </trkpt>
      <trkpt lat="44.63363" lon="6.13524">
        <ele>1172.47</ele>
        <time>2015-10-08T09:49:33Z</time>
      </trkpt>
      <trkpt lat="44.63362" lon="6.13523">
        <ele>1172.47</ele>
        <time>2015-10-08T09:49:50Z</time>
      </trkpt>
      <trkpt lat="44.63361" lon="6.13525">
        <ele>1172.47</ele>
        <time>2015-10-08T09:49:56Z</time>
      </trkpt>
    </trkseg>
  </trk>
</gpx>